<?xml version="1.0" encoding="UTF-8" standalone="no" ?>
<gpx xmlns="http://www.topografix.com/GPX/1/1" xmlns:xsi="http://www.w3.org/2001/XMLSchema-instance" xsi:schemaLocation="http://www.topografix.com/GPX/1/1 http://www.topografix.com/GPX/1/1/gpx.xsd" version="1.1" creator="VisuGPX - https://www.visugpx.com">
  <metadata>
    <name>balade digestive autour de Port Blanc</name>
    <desc><![CDATA[Petite balade digestive autour de Port Blanc, après un bon repas]]></desc>
  </metadata>
  <trk>
    <name><![CDATA[4 déc. 2015]]></name>
    <cmt><![CDATA[15:37:47]]></cmt>
    <desc><![CDATA[comment ...]]></desc>
    <trkseg>
      <trkpt lat="48.83164" lon="-3.32396">
        <ele>15</ele>
        <time>2015-12-04T14:37:47Z</time>
      </trkpt>
      <trkpt lat="48.83162" lon="-3.32397">
        <ele>15</ele>
        <time>2015-12-04T14:37:48Z</time>
      </trkpt>
      <trkpt lat="48.83162" lon="-3.324">
        <ele>14</ele>
        <time>2015-12-04T14:37:49Z</time>
      </trkpt>
      <trkpt lat="48.83162" lon="-3.32403">
        <ele>13</ele>
        <time>2015-12-04T14:37:51Z</time>
      </trkpt>
      <trkpt lat="48.83162" lon="-3.32405">
        <ele>14</ele>
        <time>2015-12-04T14:37:52Z</time>
      </trkpt>
      <trkpt lat="48.83162" lon="-3.32423">
        <ele>12</ele>
        <time>2015-12-04T14:38:00Z</time>
      </trkpt>
      <trkpt lat="48.83165" lon="-3.32423">
        <ele>12</ele>
        <time>2015-12-04T14:38:02Z</time>
      </trkpt>
      <trkpt lat="48.83166" lon="-3.32426">
        <ele>10</ele>
        <time>2015-12-04T14:38:04Z</time>
      </trkpt>
      <trkpt lat="48.83165" lon="-3.32435">
        <ele>10</ele>
        <time>2015-12-04T14:38:09Z</time>
      </trkpt>
      <trkpt lat="48.83167" lon="-3.32438">
        <ele>10</ele>
        <time>2015-12-04T14:38:11Z</time>
      </trkpt>
      <trkpt lat="48.83168" lon="-3.32443">
        <ele>12</ele>
        <time>2015-12-04T14:38:14Z</time>
      </trkpt>
      <trkpt lat="48.8317" lon="-3.32444">
        <ele>11</ele>
        <time>2015-12-04T14:38:15Z</time>
      </trkpt>
      <trkpt lat="48.83171" lon="-3.3245">
        <ele>12</ele>
        <time>2015-12-04T14:38:17Z</time>
      </trkpt>
      <trkpt lat="48.83169" lon="-3.32454">
        <ele>13</ele>
        <time>2015-12-04T14:38:18Z</time>
      </trkpt>
      <trkpt lat="48.83172" lon="-3.32468">
        <ele>12</ele>
        <time>2015-12-04T14:38:28Z</time>
      </trkpt>
      <trkpt lat="48.83166" lon="-3.32476">
        <ele>14</ele>
        <time>2015-12-04T14:38:31Z</time>
      </trkpt>
      <trkpt lat="48.83167" lon="-3.32482">
        <ele>15</ele>
        <time>2015-12-04T14:38:36Z</time>
      </trkpt>
      <trkpt lat="48.83165" lon="-3.32485">
        <ele>15</ele>
        <time>2015-12-04T14:38:42Z</time>
      </trkpt>
      <trkpt lat="48.83165" lon="-3.32493">
        <ele>14</ele>
        <time>2015-12-04T14:38:57Z</time>
      </trkpt>
      <trkpt lat="48.83168" lon="-3.32494">
        <ele>15</ele>
        <time>2015-12-04T14:39:20Z</time>
      </trkpt>
      <trkpt lat="48.83168" lon="-3.32497">
        <ele>15</ele>
        <time>2015-12-04T14:39:27Z</time>
      </trkpt>
      <trkpt lat="48.83171" lon="-3.32499">
        <ele>11</ele>
        <time>2015-12-04T14:39:34Z</time>
      </trkpt>
      <trkpt lat="48.83172" lon="-3.32503">
        <ele>12</ele>
        <time>2015-12-04T14:39:47Z</time>
      </trkpt>
      <trkpt lat="48.83175" lon="-3.32509">
        <ele>13</ele>
        <time>2015-12-04T14:39:51Z</time>
      </trkpt>
      <trkpt lat="48.83172" lon="-3.32522">
        <ele>14</ele>
        <time>2015-12-04T14:39:57Z</time>
      </trkpt>
      <trkpt lat="48.83173" lon="-3.32525">
        <ele>14</ele>
        <time>2015-12-04T14:40:01Z</time>
      </trkpt>
      <trkpt lat="48.83178" lon="-3.32527">
        <ele>14</ele>
        <time>2015-12-04T14:40:04Z</time>
      </trkpt>
      <trkpt lat="48.83186" lon="-3.32543">
        <ele>10</ele>
        <time>2015-12-04T14:40:17Z</time>
      </trkpt>
      <trkpt lat="48.83188" lon="-3.32548">
        <ele>11</ele>
        <time>2015-12-04T14:40:20Z</time>
      </trkpt>
      <trkpt lat="48.83197" lon="-3.32575">
        <ele>8</ele>
        <time>2015-12-04T14:40:38Z</time>
      </trkpt>
      <trkpt lat="48.83197" lon="-3.32585">
        <ele>9</ele>
        <time>2015-12-04T14:40:49Z</time>
      </trkpt>
      <trkpt lat="48.83207" lon="-3.32601">
        <ele>13</ele>
        <time>2015-12-04T14:40:59Z</time>
      </trkpt>
      <trkpt lat="48.83205" lon="-3.32607">
        <ele>11</ele>
        <time>2015-12-04T14:41:03Z</time>
      </trkpt>
      <trkpt lat="48.83208" lon="-3.32612">
        <ele>9</ele>
        <time>2015-12-04T14:41:07Z</time>
      </trkpt>
      <trkpt lat="48.83208" lon="-3.32616">
        <ele>8</ele>
        <time>2015-12-04T14:41:10Z</time>
      </trkpt>
      <trkpt lat="48.83208" lon="-3.32624">
        <ele>7</ele>
        <time>2015-12-04T14:41:16Z</time>
      </trkpt>
      <trkpt lat="48.83207" lon="-3.32631">
        <ele>7</ele>
        <time>2015-12-04T14:41:21Z</time>
      </trkpt>
      <trkpt lat="48.83212" lon="-3.32635">
        <ele>7</ele>
        <time>2015-12-04T14:41:24Z</time>
      </trkpt>
      <trkpt lat="48.83217" lon="-3.32647">
        <ele>7</ele>
        <time>2015-12-04T14:41:32Z</time>
      </trkpt>
      <trkpt lat="48.83232" lon="-3.32658">
        <ele>8</ele>
        <time>2015-12-04T14:41:42Z</time>
      </trkpt>
      <trkpt lat="48.83237" lon="-3.32668">
        <ele>5</ele>
        <time>2015-12-04T14:41:50Z</time>
      </trkpt>
      <trkpt lat="48.83246" lon="-3.3267">
        <ele>8</ele>
        <time>2015-12-04T14:41:58Z</time>
      </trkpt>
      <trkpt lat="48.8326" lon="-3.32694">
        <ele>6</ele>
        <time>2015-12-04T14:42:19Z</time>
      </trkpt>
      <trkpt lat="48.83263" lon="-3.327">
        <ele>5</ele>
        <time>2015-12-04T14:42:25Z</time>
      </trkpt>
      <trkpt lat="48.83263" lon="-3.32704">
        <ele>6</ele>
        <time>2015-12-04T14:42:28Z</time>
      </trkpt>
      <trkpt lat="48.8327" lon="-3.32713">
        <ele>6</ele>
        <time>2015-12-04T14:42:38Z</time>
      </trkpt>
      <trkpt lat="48.8327" lon="-3.32717">
        <ele>5</ele>
        <time>2015-12-04T14:42:40Z</time>
      </trkpt>
      <trkpt lat="48.83273" lon="-3.32725">
        <ele>3</ele>
        <time>2015-12-04T14:42:45Z</time>
      </trkpt>
      <trkpt lat="48.83273" lon="-3.32728">
        <ele>3</ele>
        <time>2015-12-04T14:42:47Z</time>
      </trkpt>
      <trkpt lat="48.83278" lon="-3.32736">
        <ele>3</ele>
        <time>2015-12-04T14:42:54Z</time>
      </trkpt>
      <trkpt lat="48.83285" lon="-3.32745">
        <ele>6.2</ele>
        <time>2015-12-04T14:43:02Z</time>
      </trkpt>
      <trkpt lat="48.83283" lon="-3.32749">
        <ele>-1</ele>
        <time>2015-12-04T14:43:05Z</time>
      </trkpt>
      <trkpt lat="48.83285" lon="-3.32753">
        <ele>-2</ele>
        <time>2015-12-04T14:43:08Z</time>
      </trkpt>
      <trkpt lat="48.83291" lon="-3.32764">
        <ele>-3</ele>
        <time>2015-12-04T14:43:14Z</time>
      </trkpt>
      <trkpt lat="48.83294" lon="-3.32764">
        <ele>-3</ele>
        <time>2015-12-04T14:43:15Z</time>
      </trkpt>
      <trkpt lat="48.83294" lon="-3.32767">
        <ele>-3</ele>
        <time>2015-12-04T14:43:17Z</time>
      </trkpt>
      <trkpt lat="48.83293" lon="-3.32771">
        <ele>-3</ele>
        <time>2015-12-04T14:43:20Z</time>
      </trkpt>
      <trkpt lat="48.83295" lon="-3.3278">
        <ele>-1</ele>
        <time>2015-12-04T14:43:24Z</time>
      </trkpt>
      <trkpt lat="48.83303" lon="-3.32786">
        <ele>1</ele>
        <time>2015-12-04T14:43:29Z</time>
      </trkpt>
      <trkpt lat="48.83297" lon="-3.3279">
        <ele>2</ele>
        <time>2015-12-04T14:43:31Z</time>
      </trkpt>
      <trkpt lat="48.83298" lon="-3.32793">
        <ele>3</ele>
        <time>2015-12-04T14:43:33Z</time>
      </trkpt>
      <trkpt lat="48.833" lon="-3.32795">
        <ele>6</ele>
        <time>2015-12-04T14:43:35Z</time>
      </trkpt>
      <trkpt lat="48.83301" lon="-3.32798">
        <ele>5</ele>
        <time>2015-12-04T14:43:37Z</time>
      </trkpt>
      <trkpt lat="48.83301" lon="-3.32805">
        <ele>7</ele>
        <time>2015-12-04T14:43:41Z</time>
      </trkpt>
      <trkpt lat="48.83307" lon="-3.3281">
        <ele>5</ele>
        <time>2015-12-04T14:43:45Z</time>
      </trkpt>
      <trkpt lat="48.83307" lon="-3.32818">
        <ele>5</ele>
        <time>2015-12-04T14:43:51Z</time>
      </trkpt>
      <trkpt lat="48.83308" lon="-3.32819">
        <ele>5</ele>
        <time>2015-12-04T14:43:52Z</time>
      </trkpt>
      <trkpt lat="48.83311" lon="-3.32822">
        <ele>4</ele>
        <time>2015-12-04T14:43:56Z</time>
      </trkpt>
      <trkpt lat="48.83327" lon="-3.3286">
        <ele>4</ele>
        <time>2015-12-04T14:44:26Z</time>
      </trkpt>
      <trkpt lat="48.8333" lon="-3.32862">
        <ele>3</ele>
        <time>2015-12-04T14:44:28Z</time>
      </trkpt>
      <trkpt lat="48.83334" lon="-3.32874">
        <ele>4</ele>
        <time>2015-12-04T14:44:36Z</time>
      </trkpt>
      <trkpt lat="48.83336" lon="-3.32875">
        <ele>3</ele>
        <time>2015-12-04T14:44:37Z</time>
      </trkpt>
      <trkpt lat="48.83338" lon="-3.3288">
        <ele>2</ele>
        <time>2015-12-04T14:44:41Z</time>
      </trkpt>
      <trkpt lat="48.83339" lon="-3.32883">
        <ele>1</ele>
        <time>2015-12-04T14:45:18Z</time>
      </trkpt>
      <trkpt lat="48.83347" lon="-3.32899">
        <ele>6.8</ele>
        <time>2015-12-04T14:45:29Z</time>
      </trkpt>
      <trkpt lat="48.8335" lon="-3.32901">
        <ele>6.6</ele>
        <time>2015-12-04T14:45:33Z</time>
      </trkpt>
      <trkpt lat="48.83353" lon="-3.32903">
        <ele>4</ele>
        <time>2015-12-04T14:45:35Z</time>
      </trkpt>
      <trkpt lat="48.83357" lon="-3.32913">
        <ele>2</ele>
        <time>2015-12-04T14:45:42Z</time>
      </trkpt>
      <trkpt lat="48.83359" lon="-3.32914">
        <ele>1</ele>
        <time>2015-12-04T14:45:44Z</time>
      </trkpt>
      <trkpt lat="48.8336" lon="-3.32913">
        <ele>5.4</ele>
        <time>2015-12-04T14:45:46Z</time>
      </trkpt>
      <trkpt lat="48.83371" lon="-3.32913">
        <ele>1</ele>
        <time>2015-12-04T14:46:01Z</time>
      </trkpt>
      <trkpt lat="48.83375" lon="-3.32905">
        <ele>1</ele>
        <time>2015-12-04T14:46:07Z</time>
      </trkpt>
      <trkpt lat="48.83377" lon="-3.32905">
        <ele>1</ele>
        <time>2015-12-04T14:46:11Z</time>
      </trkpt>
      <trkpt lat="48.83378" lon="-3.32904">
        <ele>1</ele>
        <time>2015-12-04T14:46:13Z</time>
      </trkpt>
      <trkpt lat="48.83379" lon="-3.32902">
        <ele>3</ele>
        <time>2015-12-04T14:46:17Z</time>
      </trkpt>
      <trkpt lat="48.8338" lon="-3.329">
        <ele>4</ele>
        <time>2015-12-04T14:46:19Z</time>
      </trkpt>
      <trkpt lat="48.83382" lon="-3.32902">
        <ele>3</ele>
        <time>2015-12-04T14:46:21Z</time>
      </trkpt>
      <trkpt lat="48.83384" lon="-3.329">
        <ele>2</ele>
        <time>2015-12-04T14:46:23Z</time>
      </trkpt>
      <trkpt lat="48.83386" lon="-3.329">
        <ele>2</ele>
        <time>2015-12-04T14:46:25Z</time>
      </trkpt>
      <trkpt lat="48.8339" lon="-3.329">
        <ele>2</ele>
        <time>2015-12-04T14:46:30Z</time>
      </trkpt>
      <trkpt lat="48.8339" lon="-3.32895">
        <ele>2</ele>
        <time>2015-12-04T14:46:33Z</time>
      </trkpt>
      <trkpt lat="48.83392" lon="-3.32889">
        <ele>3</ele>
        <time>2015-12-04T14:46:37Z</time>
      </trkpt>
      <trkpt lat="48.83397" lon="-3.32886">
        <ele>3</ele>
        <time>2015-12-04T14:46:43Z</time>
      </trkpt>
      <trkpt lat="48.83414" lon="-3.32851">
        <ele>5</ele>
        <time>2015-12-04T14:47:13Z</time>
      </trkpt>
      <trkpt lat="48.83436" lon="-3.32817">
        <ele>2</ele>
        <time>2015-12-04T14:47:45Z</time>
      </trkpt>
      <trkpt lat="48.83439" lon="-3.32814">
        <ele>2</ele>
        <time>2015-12-04T14:47:49Z</time>
      </trkpt>
      <trkpt lat="48.8344" lon="-3.32811">
        <ele>2</ele>
        <time>2015-12-04T14:47:51Z</time>
      </trkpt>
      <trkpt lat="48.83445" lon="-3.32803">
        <ele>2</ele>
        <time>2015-12-04T14:47:59Z</time>
      </trkpt>
      <trkpt lat="48.83447" lon="-3.32794">
        <ele>3</ele>
        <time>2015-12-04T14:48:06Z</time>
      </trkpt>
      <trkpt lat="48.83452" lon="-3.3279">
        <ele>3</ele>
        <time>2015-12-04T14:48:11Z</time>
      </trkpt>
      <trkpt lat="48.83452" lon="-3.32787">
        <ele>3</ele>
        <time>2015-12-04T14:48:12Z</time>
      </trkpt>
      <trkpt lat="48.83456" lon="-3.32786">
        <ele>2</ele>
        <time>2015-12-04T14:48:15Z</time>
      </trkpt>
      <trkpt lat="48.83478" lon="-3.3275">
        <ele>-3</ele>
        <time>2015-12-04T14:48:46Z</time>
      </trkpt>
      <trkpt lat="48.83482" lon="-3.32741">
        <ele>-3</ele>
        <time>2015-12-04T14:48:53Z</time>
      </trkpt>
      <trkpt lat="48.83489" lon="-3.32745">
        <ele>-2</ele>
        <time>2015-12-04T14:49:00Z</time>
      </trkpt>
      <trkpt lat="48.83492" lon="-3.32733">
        <ele>-1</ele>
        <time>2015-12-04T14:49:07Z</time>
      </trkpt>
      <trkpt lat="48.83493" lon="-3.32735">
        <ele>-1</ele>
        <time>2015-12-04T14:49:08Z</time>
      </trkpt>
      <trkpt lat="48.83494" lon="-3.32732">
        <ele>3.9</ele>
        <time>2015-12-04T14:49:10Z</time>
      </trkpt>
      <trkpt lat="48.83496" lon="-3.3273">
        <ele>-1</ele>
        <time>2015-12-04T14:49:13Z</time>
      </trkpt>
      <trkpt lat="48.83497" lon="-3.32727">
        <ele>-1</ele>
        <time>2015-12-04T14:49:15Z</time>
      </trkpt>
      <trkpt lat="48.83503" lon="-3.32725">
        <ele>-1</ele>
        <time>2015-12-04T14:49:22Z</time>
      </trkpt>
      <trkpt lat="48.83504" lon="-3.32724">
        <ele>-1</ele>
        <time>2015-12-04T14:49:23Z</time>
      </trkpt>
      <trkpt lat="48.83507" lon="-3.3272">
        <ele>4.2</ele>
        <time>2015-12-04T14:49:28Z</time>
      </trkpt>
      <trkpt lat="48.83508" lon="-3.32714">
        <ele>1</ele>
        <time>2015-12-04T14:49:33Z</time>
      </trkpt>
      <trkpt lat="48.83512" lon="-3.32707">
        <ele>3</ele>
        <time>2015-12-04T14:49:39Z</time>
      </trkpt>
      <trkpt lat="48.83514" lon="-3.32706">
        <ele>2</ele>
        <time>2015-12-04T14:49:41Z</time>
      </trkpt>
      <trkpt lat="48.83516" lon="-3.32703">
        <ele>2</ele>
        <time>2015-12-04T14:49:43Z</time>
      </trkpt>
      <trkpt lat="48.83515" lon="-3.32699">
        <ele>2</ele>
        <time>2015-12-04T14:49:45Z</time>
      </trkpt>
      <trkpt lat="48.83517" lon="-3.32699">
        <ele>1</ele>
        <time>2015-12-04T14:49:48Z</time>
      </trkpt>
      <trkpt lat="48.8352" lon="-3.32695">
        <ele>5.9</ele>
        <time>2015-12-04T14:49:52Z</time>
      </trkpt>
      <trkpt lat="48.83521" lon="-3.32697">
        <ele>-1</ele>
        <time>2015-12-04T14:49:54Z</time>
      </trkpt>
      <trkpt lat="48.83525" lon="-3.32695">
        <ele>-1</ele>
        <time>2015-12-04T14:50:02Z</time>
      </trkpt>
      <trkpt lat="48.83523" lon="-3.32694">
        <ele>6</ele>
        <time>2015-12-04T14:50:16Z</time>
      </trkpt>
      <trkpt lat="48.83522" lon="-3.32692">
        <ele>2</ele>
        <time>2015-12-04T14:50:22Z</time>
      </trkpt>
      <trkpt lat="48.83524" lon="-3.32689">
        <ele>2</ele>
        <time>2015-12-04T14:50:43Z</time>
      </trkpt>
      <trkpt lat="48.83525" lon="-3.32687">
        <ele>2</ele>
        <time>2015-12-04T14:50:44Z</time>
      </trkpt>
      <trkpt lat="48.83528" lon="-3.32683">
        <ele>1</ele>
        <time>2015-12-04T14:50:47Z</time>
      </trkpt>
      <trkpt lat="48.83528" lon="-3.3268">
        <ele>6.5</ele>
        <time>2015-12-04T14:50:49Z</time>
      </trkpt>
      <trkpt lat="48.83529" lon="-3.32669">
        <ele>-1</ele>
        <time>2015-12-04T14:51:03Z</time>
      </trkpt>
      <trkpt lat="48.83528" lon="-3.32667">
        <ele>6.9</ele>
        <time>2015-12-04T14:51:06Z</time>
      </trkpt>
      <trkpt lat="48.83529" lon="-3.32662">
        <ele>1</ele>
        <time>2015-12-04T14:51:07Z</time>
      </trkpt>
      <trkpt lat="48.83528" lon="-3.3266">
        <ele>2</ele>
        <time>2015-12-04T14:51:10Z</time>
      </trkpt>
      <trkpt lat="48.83529" lon="-3.32657">
        <ele>3</ele>
        <time>2015-12-04T14:51:14Z</time>
      </trkpt>
      <trkpt lat="48.83529" lon="-3.32654">
        <ele>4</ele>
        <time>2015-12-04T14:51:18Z</time>
      </trkpt>
      <trkpt lat="48.83528" lon="-3.32652">
        <ele>4</ele>
        <time>2015-12-04T14:51:20Z</time>
      </trkpt>
      <trkpt lat="48.83527" lon="-3.32641">
        <ele>6</ele>
        <time>2015-12-04T14:51:28Z</time>
      </trkpt>
      <trkpt lat="48.83526" lon="-3.3264">
        <ele>6</ele>
        <time>2015-12-04T14:51:32Z</time>
      </trkpt>
      <trkpt lat="48.83525" lon="-3.32637">
        <ele>6</ele>
        <time>2015-12-04T14:51:35Z</time>
      </trkpt>
      <trkpt lat="48.83527" lon="-3.32631">
        <ele>5</ele>
        <time>2015-12-04T14:51:39Z</time>
      </trkpt>
      <trkpt lat="48.83527" lon="-3.32627">
        <ele>5</ele>
        <time>2015-12-04T14:51:41Z</time>
      </trkpt>
      <trkpt lat="48.83527" lon="-3.32626">
        <ele>5</ele>
        <time>2015-12-04T14:51:43Z</time>
      </trkpt>
      <trkpt lat="48.83529" lon="-3.32612">
        <ele>2</ele>
        <time>2015-12-04T14:51:52Z</time>
      </trkpt>
      <trkpt lat="48.83531" lon="-3.32609">
        <ele>2</ele>
        <time>2015-12-04T14:51:56Z</time>
      </trkpt>
      <trkpt lat="48.83532" lon="-3.32601">
        <ele>3</ele>
        <time>2015-12-04T14:52:04Z</time>
      </trkpt>
      <trkpt lat="48.83532" lon="-3.32599">
        <ele>3</ele>
        <time>2015-12-04T14:52:05Z</time>
      </trkpt>
      <trkpt lat="48.83535" lon="-3.32592">
        <ele>5</ele>
        <time>2015-12-04T14:52:09Z</time>
      </trkpt>
      <trkpt lat="48.83535" lon="-3.32589">
        <ele>5</ele>
        <time>2015-12-04T14:52:12Z</time>
      </trkpt>
      <trkpt lat="48.83541" lon="-3.32585">
        <ele>5</ele>
        <time>2015-12-04T14:52:18Z</time>
      </trkpt>
      <trkpt lat="48.83542" lon="-3.32583">
        <ele>5</ele>
        <time>2015-12-04T14:52:20Z</time>
      </trkpt>
      <trkpt lat="48.83543" lon="-3.3258">
        <ele>5</ele>
        <time>2015-12-04T14:52:22Z</time>
      </trkpt>
      <trkpt lat="48.83544" lon="-3.32577">
        <ele>5</ele>
        <time>2015-12-04T14:52:23Z</time>
      </trkpt>
      <trkpt lat="48.83545" lon="-3.32573">
        <ele>5</ele>
        <time>2015-12-04T14:52:25Z</time>
      </trkpt>
      <trkpt lat="48.83548" lon="-3.32568">
        <ele>5</ele>
        <time>2015-12-04T14:52:29Z</time>
      </trkpt>
      <trkpt lat="48.83549" lon="-3.32564">
        <ele>4</ele>
        <time>2015-12-04T14:52:33Z</time>
      </trkpt>
      <trkpt lat="48.83548" lon="-3.32562">
        <ele>4</ele>
        <time>2015-12-04T14:52:34Z</time>
      </trkpt>
      <trkpt lat="48.83549" lon="-3.32559">
        <ele>4</ele>
        <time>2015-12-04T14:52:36Z</time>
      </trkpt>
      <trkpt lat="48.83553" lon="-3.32557">
        <ele>4</ele>
        <time>2015-12-04T14:52:41Z</time>
      </trkpt>
      <trkpt lat="48.83553" lon="-3.32551">
        <ele>3</ele>
        <time>2015-12-04T14:52:46Z</time>
      </trkpt>
      <trkpt lat="48.83558" lon="-3.3254">
        <ele>1</ele>
        <time>2015-12-04T14:52:53Z</time>
      </trkpt>
      <trkpt lat="48.8356" lon="-3.3254">
        <ele>1</ele>
        <time>2015-12-04T14:52:55Z</time>
      </trkpt>
      <trkpt lat="48.83569" lon="-3.32516">
        <ele>2</ele>
        <time>2015-12-04T14:53:10Z</time>
      </trkpt>
      <trkpt lat="48.83575" lon="-3.32503">
        <ele>4</ele>
        <time>2015-12-04T14:53:24Z</time>
      </trkpt>
      <trkpt lat="48.83577" lon="-3.32502">
        <ele>2</ele>
        <time>2015-12-04T14:53:26Z</time>
      </trkpt>
      <trkpt lat="48.83578" lon="-3.32499">
        <ele>1</ele>
        <time>2015-12-04T14:53:29Z</time>
      </trkpt>
      <trkpt lat="48.83598" lon="-3.32474">
        <ele>5</ele>
        <time>2015-12-04T14:53:57Z</time>
      </trkpt>
      <trkpt lat="48.83597" lon="-3.32472">
        <ele>5</ele>
        <time>2015-12-04T14:53:58Z</time>
      </trkpt>
      <trkpt lat="48.83598" lon="-3.3247">
        <ele>4</ele>
        <time>2015-12-04T14:54:00Z</time>
      </trkpt>
      <trkpt lat="48.83599" lon="-3.32469">
        <ele>4</ele>
        <time>2015-12-04T14:54:02Z</time>
      </trkpt>
      <trkpt lat="48.836" lon="-3.32466">
        <ele>4</ele>
        <time>2015-12-04T14:54:04Z</time>
      </trkpt>
      <trkpt lat="48.83608" lon="-3.32444">
        <ele>6</ele>
        <time>2015-12-04T14:54:19Z</time>
      </trkpt>
      <trkpt lat="48.83613" lon="-3.32442">
        <ele>7</ele>
        <time>2015-12-04T14:54:22Z</time>
      </trkpt>
      <trkpt lat="48.83626" lon="-3.32426">
        <ele>3</ele>
        <time>2015-12-04T14:54:39Z</time>
      </trkpt>
      <trkpt lat="48.83626" lon="-3.32422">
        <ele>1</ele>
        <time>2015-12-04T14:54:42Z</time>
      </trkpt>
      <trkpt lat="48.8363" lon="-3.3242">
        <ele>9.2</ele>
        <time>2015-12-04T14:54:45Z</time>
      </trkpt>
      <trkpt lat="48.83631" lon="-3.32418">
        <ele>9.4</ele>
        <time>2015-12-04T14:54:46Z</time>
      </trkpt>
      <trkpt lat="48.83635" lon="-3.32414">
        <ele>2</ele>
        <time>2015-12-04T14:54:50Z</time>
      </trkpt>
      <trkpt lat="48.83637" lon="-3.32413">
        <ele>4</ele>
        <time>2015-12-04T14:54:52Z</time>
      </trkpt>
      <trkpt lat="48.83639" lon="-3.3241">
        <ele>5</ele>
        <time>2015-12-04T14:54:56Z</time>
      </trkpt>
      <trkpt lat="48.83641" lon="-3.32409">
        <ele>6</ele>
        <time>2015-12-04T14:54:58Z</time>
      </trkpt>
      <trkpt lat="48.83642" lon="-3.32407">
        <ele>6</ele>
        <time>2015-12-04T14:54:59Z</time>
      </trkpt>
      <trkpt lat="48.83648" lon="-3.32403">
        <ele>5</ele>
        <time>2015-12-04T14:55:03Z</time>
      </trkpt>
      <trkpt lat="48.8365" lon="-3.32401">
        <ele>4</ele>
        <time>2015-12-04T14:55:05Z</time>
      </trkpt>
      <trkpt lat="48.8366" lon="-3.32388">
        <ele>5</ele>
        <time>2015-12-04T14:55:17Z</time>
      </trkpt>
      <trkpt lat="48.83666" lon="-3.32387">
        <ele>4</ele>
        <time>2015-12-04T14:55:21Z</time>
      </trkpt>
      <trkpt lat="48.83668" lon="-3.32385">
        <ele>2</ele>
        <time>2015-12-04T14:55:28Z</time>
      </trkpt>
      <trkpt lat="48.83669" lon="-3.32388">
        <ele>3</ele>
        <time>2015-12-04T14:55:34Z</time>
      </trkpt>
      <trkpt lat="48.83668" lon="-3.3239">
        <ele>3</ele>
        <time>2015-12-04T14:55:37Z</time>
      </trkpt>
      <trkpt lat="48.83667" lon="-3.32391">
        <ele>3</ele>
        <time>2015-12-04T14:55:39Z</time>
      </trkpt>
      <trkpt lat="48.83665" lon="-3.32393">
        <ele>3</ele>
        <time>2015-12-04T14:55:42Z</time>
      </trkpt>
      <trkpt lat="48.83664" lon="-3.32395">
        <ele>4</ele>
        <time>2015-12-04T14:55:43Z</time>
      </trkpt>
      <trkpt lat="48.83663" lon="-3.32392">
        <ele>5</ele>
        <time>2015-12-04T14:55:55Z</time>
      </trkpt>
      <trkpt lat="48.83667" lon="-3.32391">
        <ele>5</ele>
        <time>2015-12-04T14:56:00Z</time>
      </trkpt>
      <trkpt lat="48.83669" lon="-3.32388">
        <ele>2</ele>
        <time>2015-12-04T14:56:14Z</time>
      </trkpt>
      <trkpt lat="48.83671" lon="-3.3238">
        <ele>3</ele>
        <time>2015-12-04T14:56:18Z</time>
      </trkpt>
      <trkpt lat="48.8367" lon="-3.32375">
        <ele>5</ele>
        <time>2015-12-04T14:56:20Z</time>
      </trkpt>
      <trkpt lat="48.83672" lon="-3.32375">
        <ele>5</ele>
        <time>2015-12-04T14:56:22Z</time>
      </trkpt>
      <trkpt lat="48.83673" lon="-3.32372">
        <ele>7</ele>
        <time>2015-12-04T14:56:25Z</time>
      </trkpt>
      <trkpt lat="48.83675" lon="-3.32373">
        <ele>7</ele>
        <time>2015-12-04T14:56:27Z</time>
      </trkpt>
      <trkpt lat="48.83675" lon="-3.32376">
        <ele>7</ele>
        <time>2015-12-04T14:56:37Z</time>
      </trkpt>
      <trkpt lat="48.83676" lon="-3.32372">
        <ele>6</ele>
        <time>2015-12-04T14:56:51Z</time>
      </trkpt>
      <trkpt lat="48.83677" lon="-3.32368">
        <ele>6</ele>
        <time>2015-12-04T14:56:53Z</time>
      </trkpt>
      <trkpt lat="48.83683" lon="-3.32361">
        <ele>1</ele>
        <time>2015-12-04T14:57:00Z</time>
      </trkpt>
      <trkpt lat="48.83684" lon="-3.32357">
        <ele>1</ele>
        <time>2015-12-04T14:57:02Z</time>
      </trkpt>
      <trkpt lat="48.83687" lon="-3.3235">
        <ele>3</ele>
        <time>2015-12-04T14:57:07Z</time>
      </trkpt>
      <trkpt lat="48.83688" lon="-3.32348">
        <ele>3</ele>
        <time>2015-12-04T14:57:08Z</time>
      </trkpt>
      <trkpt lat="48.83693" lon="-3.32337">
        <ele>3</ele>
        <time>2015-12-04T14:57:16Z</time>
      </trkpt>
      <trkpt lat="48.83693" lon="-3.32334">
        <ele>3</ele>
        <time>2015-12-04T14:57:17Z</time>
      </trkpt>
      <trkpt lat="48.83694" lon="-3.32332">
        <ele>3</ele>
        <time>2015-12-04T14:57:18Z</time>
      </trkpt>
      <trkpt lat="48.83696" lon="-3.32332">
        <ele>2</ele>
        <time>2015-12-04T14:57:19Z</time>
      </trkpt>
      <trkpt lat="48.83697" lon="-3.32333">
        <ele>2</ele>
        <time>2015-12-04T14:57:20Z</time>
      </trkpt>
      <trkpt lat="48.837" lon="-3.3233">
        <ele>2</ele>
        <time>2015-12-04T14:57:23Z</time>
      </trkpt>
      <trkpt lat="48.83701" lon="-3.32329">
        <ele>2</ele>
        <time>2015-12-04T14:57:31Z</time>
      </trkpt>
      <trkpt lat="48.83701" lon="-3.32325">
        <ele>1</ele>
        <time>2015-12-04T14:57:33Z</time>
      </trkpt>
      <trkpt lat="48.83701" lon="-3.32323">
        <ele>7.3</ele>
        <time>2015-12-04T14:57:36Z</time>
      </trkpt>
      <trkpt lat="48.83703" lon="-3.32322">
        <ele>1</ele>
        <time>2015-12-04T14:57:37Z</time>
      </trkpt>
      <trkpt lat="48.83704" lon="-3.3232">
        <ele>1</ele>
        <time>2015-12-04T14:57:38Z</time>
      </trkpt>
      <trkpt lat="48.83707" lon="-3.32321">
        <ele>-1</ele>
        <time>2015-12-04T14:57:41Z</time>
      </trkpt>
      <trkpt lat="48.83713" lon="-3.32315">
        <ele>-2</ele>
        <time>2015-12-04T14:57:49Z</time>
      </trkpt>
      <trkpt lat="48.83713" lon="-3.32312">
        <ele>-3</ele>
        <time>2015-12-04T14:57:50Z</time>
      </trkpt>
      <trkpt lat="48.83717" lon="-3.32302">
        <ele>-2</ele>
        <time>2015-12-04T14:57:56Z</time>
      </trkpt>
      <trkpt lat="48.8372" lon="-3.32301">
        <ele>-2</ele>
        <time>2015-12-04T14:57:58Z</time>
      </trkpt>
      <trkpt lat="48.83721" lon="-3.32297">
        <ele>-1</ele>
        <time>2015-12-04T14:58:00Z</time>
      </trkpt>
      <trkpt lat="48.83724" lon="-3.32294">
        <ele>-1</ele>
        <time>2015-12-04T14:58:04Z</time>
      </trkpt>
      <trkpt lat="48.83725" lon="-3.32287">
        <ele>7.6</ele>
        <time>2015-12-04T14:58:09Z</time>
      </trkpt>
      <trkpt lat="48.83727" lon="-3.32285">
        <ele>1</ele>
        <time>2015-12-04T14:58:10Z</time>
      </trkpt>
      <trkpt lat="48.83728" lon="-3.3228">
        <ele>1</ele>
        <time>2015-12-04T14:58:13Z</time>
      </trkpt>
      <trkpt lat="48.8373" lon="-3.32281">
        <ele>1</ele>
        <time>2015-12-04T14:58:15Z</time>
      </trkpt>
      <trkpt lat="48.83731" lon="-3.32279">
        <ele>7.3</ele>
        <time>2015-12-04T14:58:18Z</time>
      </trkpt>
      <trkpt lat="48.83736" lon="-3.32274">
        <ele>7</ele>
        <time>2015-12-04T14:58:24Z</time>
      </trkpt>
      <trkpt lat="48.83741" lon="-3.32264">
        <ele>2</ele>
        <time>2015-12-04T14:58:31Z</time>
      </trkpt>
      <trkpt lat="48.83742" lon="-3.32264">
        <ele>2</ele>
        <time>2015-12-04T14:58:32Z</time>
      </trkpt>
      <trkpt lat="48.83744" lon="-3.32256">
        <ele>3</ele>
        <time>2015-12-04T14:58:36Z</time>
      </trkpt>
      <trkpt lat="48.83774" lon="-3.32223">
        <ele>4</ele>
        <time>2015-12-04T14:59:07Z</time>
      </trkpt>
      <trkpt lat="48.83778" lon="-3.32198">
        <ele>4</ele>
        <time>2015-12-04T14:59:21Z</time>
      </trkpt>
      <trkpt lat="48.83777" lon="-3.32195">
        <ele>4</ele>
        <time>2015-12-04T14:59:23Z</time>
      </trkpt>
      <trkpt lat="48.83777" lon="-3.32193">
        <ele>3</ele>
        <time>2015-12-04T14:59:34Z</time>
      </trkpt>
      <trkpt lat="48.83776" lon="-3.32191">
        <ele>2</ele>
        <time>2015-12-04T14:59:36Z</time>
      </trkpt>
      <trkpt lat="48.83776" lon="-3.32187">
        <ele>2</ele>
        <time>2015-12-04T14:59:38Z</time>
      </trkpt>
      <trkpt lat="48.83775" lon="-3.32181">
        <ele>3</ele>
        <time>2015-12-04T14:59:45Z</time>
      </trkpt>
      <trkpt lat="48.83774" lon="-3.32178">
        <ele>4</ele>
        <time>2015-12-04T14:59:47Z</time>
      </trkpt>
      <trkpt lat="48.83773" lon="-3.32177">
        <ele>4</ele>
        <time>2015-12-04T14:59:53Z</time>
      </trkpt>
      <trkpt lat="48.83775" lon="-3.32169">
        <ele>2</ele>
        <time>2015-12-04T14:59:58Z</time>
      </trkpt>
      <trkpt lat="48.83775" lon="-3.32166">
        <ele>1</ele>
        <time>2015-12-04T15:00:01Z</time>
      </trkpt>
      <trkpt lat="48.83775" lon="-3.32163">
        <ele>2</ele>
        <time>2015-12-04T15:00:23Z</time>
      </trkpt>
      <trkpt lat="48.83773" lon="-3.32158">
        <ele>3</ele>
        <time>2015-12-04T15:00:29Z</time>
      </trkpt>
      <trkpt lat="48.83775" lon="-3.32144">
        <ele>3</ele>
        <time>2015-12-04T15:00:34Z</time>
      </trkpt>
      <trkpt lat="48.83773" lon="-3.32142">
        <ele>3</ele>
        <time>2015-12-04T15:00:36Z</time>
      </trkpt>
      <trkpt lat="48.83772" lon="-3.32139">
        <ele>4</ele>
        <time>2015-12-04T15:00:38Z</time>
      </trkpt>
      <trkpt lat="48.83771" lon="-3.32137">
        <ele>4</ele>
        <time>2015-12-04T15:00:39Z</time>
      </trkpt>
      <trkpt lat="48.83774" lon="-3.32122">
        <ele>5</ele>
        <time>2015-12-04T15:00:47Z</time>
      </trkpt>
      <trkpt lat="48.83772" lon="-3.32118">
        <ele>5</ele>
        <time>2015-12-04T15:00:49Z</time>
      </trkpt>
      <trkpt lat="48.83772" lon="-3.3211">
        <ele>5</ele>
        <time>2015-12-04T15:00:53Z</time>
      </trkpt>
      <trkpt lat="48.83771" lon="-3.32109">
        <ele>8</ele>
        <time>2015-12-04T15:00:56Z</time>
      </trkpt>
      <trkpt lat="48.83771" lon="-3.32099">
        <ele>8</ele>
        <time>2015-12-04T15:01:00Z</time>
      </trkpt>
      <trkpt lat="48.83771" lon="-3.32095">
        <ele>6</ele>
        <time>2015-12-04T15:01:03Z</time>
      </trkpt>
      <trkpt lat="48.83768" lon="-3.3209">
        <ele>6</ele>
        <time>2015-12-04T15:01:07Z</time>
      </trkpt>
      <trkpt lat="48.83769" lon="-3.32087">
        <ele>6</ele>
        <time>2015-12-04T15:01:08Z</time>
      </trkpt>
      <trkpt lat="48.83768" lon="-3.32083">
        <ele>5</ele>
        <time>2015-12-04T15:01:10Z</time>
      </trkpt>
      <trkpt lat="48.83773" lon="-3.32065">
        <ele>6</ele>
        <time>2015-12-04T15:01:18Z</time>
      </trkpt>
      <trkpt lat="48.83772" lon="-3.32058">
        <ele>9</ele>
        <time>2015-12-04T15:01:21Z</time>
      </trkpt>
      <trkpt lat="48.83772" lon="-3.32054">
        <ele>13</ele>
        <time>2015-12-04T15:01:26Z</time>
      </trkpt>
      <trkpt lat="48.83771" lon="-3.32051">
        <ele>13</ele>
        <time>2015-12-04T15:01:28Z</time>
      </trkpt>
      <trkpt lat="48.83771" lon="-3.32036">
        <ele>13</ele>
        <time>2015-12-04T15:01:35Z</time>
      </trkpt>
      <trkpt lat="48.83769" lon="-3.32032">
        <ele>11</ele>
        <time>2015-12-04T15:01:37Z</time>
      </trkpt>
      <trkpt lat="48.83768" lon="-3.32029">
        <ele>11</ele>
        <time>2015-12-04T15:01:39Z</time>
      </trkpt>
      <trkpt lat="48.83766" lon="-3.32026">
        <ele>11</ele>
        <time>2015-12-04T15:01:41Z</time>
      </trkpt>
      <trkpt lat="48.83765" lon="-3.32023">
        <ele>10</ele>
        <time>2015-12-04T15:01:43Z</time>
      </trkpt>
      <trkpt lat="48.83765" lon="-3.3202">
        <ele>10</ele>
        <time>2015-12-04T15:01:44Z</time>
      </trkpt>
      <trkpt lat="48.8377" lon="-3.32">
        <ele>9</ele>
        <time>2015-12-04T15:01:50Z</time>
      </trkpt>
      <trkpt lat="48.83769" lon="-3.3199">
        <ele>7</ele>
        <time>2015-12-04T15:01:55Z</time>
      </trkpt>
      <trkpt lat="48.83767" lon="-3.31989">
        <ele>7</ele>
        <time>2015-12-04T15:01:56Z</time>
      </trkpt>
      <trkpt lat="48.83766" lon="-3.31987">
        <ele>6</ele>
        <time>2015-12-04T15:01:57Z</time>
      </trkpt>
      <trkpt lat="48.83766" lon="-3.31985">
        <ele>7</ele>
        <time>2015-12-04T15:01:58Z</time>
      </trkpt>
      <trkpt lat="48.83767" lon="-3.31976">
        <ele>6</ele>
        <time>2015-12-04T15:02:01Z</time>
      </trkpt>
      <trkpt lat="48.83764" lon="-3.31973">
        <ele>6</ele>
        <time>2015-12-04T15:02:04Z</time>
      </trkpt>
      <trkpt lat="48.83763" lon="-3.31969">
        <ele>6</ele>
        <time>2015-12-04T15:02:06Z</time>
      </trkpt>
      <trkpt lat="48.83766" lon="-3.31959">
        <ele>6</ele>
        <time>2015-12-04T15:02:09Z</time>
      </trkpt>
      <trkpt lat="48.83766" lon="-3.31957">
        <ele>6</ele>
        <time>2015-12-04T15:02:10Z</time>
      </trkpt>
      <trkpt lat="48.83766" lon="-3.31954">
        <ele>6</ele>
        <time>2015-12-04T15:02:11Z</time>
      </trkpt>
      <trkpt lat="48.83765" lon="-3.31951">
        <ele>5</ele>
        <time>2015-12-04T15:02:12Z</time>
      </trkpt>
      <trkpt lat="48.83766" lon="-3.31944">
        <ele>5</ele>
        <time>2015-12-04T15:02:14Z</time>
      </trkpt>
      <trkpt lat="48.83764" lon="-3.3194">
        <ele>4</ele>
        <time>2015-12-04T15:02:20Z</time>
      </trkpt>
      <trkpt lat="48.83765" lon="-3.31932">
        <ele>3</ele>
        <time>2015-12-04T15:02:24Z</time>
      </trkpt>
      <trkpt lat="48.83764" lon="-3.3193">
        <ele>5</ele>
        <time>2015-12-04T15:02:25Z</time>
      </trkpt>
      <trkpt lat="48.83765" lon="-3.31922">
        <ele>6</ele>
        <time>2015-12-04T15:02:28Z</time>
      </trkpt>
      <trkpt lat="48.83764" lon="-3.31919">
        <ele>6</ele>
        <time>2015-12-04T15:02:30Z</time>
      </trkpt>
      <trkpt lat="48.83764" lon="-3.31917">
        <ele>7</ele>
        <time>2015-12-04T15:02:31Z</time>
      </trkpt>
      <trkpt lat="48.8376" lon="-3.3191">
        <ele>5</ele>
        <time>2015-12-04T15:02:36Z</time>
      </trkpt>
      <trkpt lat="48.8376" lon="-3.31908">
        <ele>5</ele>
        <time>2015-12-04T15:02:37Z</time>
      </trkpt>
      <trkpt lat="48.83758" lon="-3.31906">
        <ele>6</ele>
        <time>2015-12-04T15:02:39Z</time>
      </trkpt>
      <trkpt lat="48.83757" lon="-3.31902">
        <ele>7</ele>
        <time>2015-12-04T15:02:41Z</time>
      </trkpt>
      <trkpt lat="48.83757" lon="-3.31899">
        <ele>8</ele>
        <time>2015-12-04T15:02:42Z</time>
      </trkpt>
      <trkpt lat="48.83756" lon="-3.31896">
        <ele>7</ele>
        <time>2015-12-04T15:02:44Z</time>
      </trkpt>
      <trkpt lat="48.83755" lon="-3.31895">
        <ele>7</ele>
        <time>2015-12-04T15:02:45Z</time>
      </trkpt>
      <trkpt lat="48.83753" lon="-3.31892">
        <ele>6</ele>
        <time>2015-12-04T15:02:46Z</time>
      </trkpt>
      <trkpt lat="48.83724" lon="-3.31848">
        <ele>2</ele>
        <time>2015-12-04T15:03:16Z</time>
      </trkpt>
      <trkpt lat="48.83703" lon="-3.31843">
        <ele>4</ele>
        <time>2015-12-04T15:03:30Z</time>
      </trkpt>
      <trkpt lat="48.83701" lon="-3.3184">
        <ele>3</ele>
        <time>2015-12-04T15:03:33Z</time>
      </trkpt>
      <trkpt lat="48.83696" lon="-3.31842">
        <ele>1</ele>
        <time>2015-12-04T15:03:36Z</time>
      </trkpt>
      <trkpt lat="48.83694" lon="-3.31842">
        <ele>1</ele>
        <time>2015-12-04T15:03:37Z</time>
      </trkpt>
      <trkpt lat="48.83693" lon="-3.31841">
        <ele>2</ele>
        <time>2015-12-04T15:03:38Z</time>
      </trkpt>
      <trkpt lat="48.83691" lon="-3.31841">
        <ele>2</ele>
        <time>2015-12-04T15:03:40Z</time>
      </trkpt>
      <trkpt lat="48.83691" lon="-3.31837">
        <ele>2</ele>
        <time>2015-12-04T15:03:41Z</time>
      </trkpt>
      <trkpt lat="48.83685" lon="-3.31831">
        <ele>1</ele>
        <time>2015-12-04T15:03:46Z</time>
      </trkpt>
      <trkpt lat="48.83683" lon="-3.3183">
        <ele>5.7</ele>
        <time>2015-12-04T15:03:48Z</time>
      </trkpt>
      <trkpt lat="48.83682" lon="-3.31829">
        <ele>5.6</ele>
        <time>2015-12-04T15:03:49Z</time>
      </trkpt>
      <trkpt lat="48.83681" lon="-3.31828">
        <ele>-1</ele>
        <time>2015-12-04T15:03:50Z</time>
      </trkpt>
      <trkpt lat="48.8368" lon="-3.31825">
        <ele>5.6</ele>
        <time>2015-12-04T15:03:51Z</time>
      </trkpt>
      <trkpt lat="48.83679" lon="-3.31823">
        <ele>5.6</ele>
        <time>2015-12-04T15:03:52Z</time>
      </trkpt>
      <trkpt lat="48.83678" lon="-3.31818">
        <ele>1</ele>
        <time>2015-12-04T15:03:54Z</time>
      </trkpt>
      <trkpt lat="48.83676" lon="-3.31816">
        <ele>1</ele>
        <time>2015-12-04T15:03:56Z</time>
      </trkpt>
      <trkpt lat="48.83674" lon="-3.31811">
        <ele>1</ele>
        <time>2015-12-04T15:03:59Z</time>
      </trkpt>
      <trkpt lat="48.83672" lon="-3.3181">
        <ele>1</ele>
        <time>2015-12-04T15:04:00Z</time>
      </trkpt>
      <trkpt lat="48.83674" lon="-3.31802">
        <ele>5.6</ele>
        <time>2015-12-04T15:04:02Z</time>
      </trkpt>
      <trkpt lat="48.83673" lon="-3.318">
        <ele>1</ele>
        <time>2015-12-04T15:04:04Z</time>
      </trkpt>
      <trkpt lat="48.83671" lon="-3.318">
        <ele>2</ele>
        <time>2015-12-04T15:04:05Z</time>
      </trkpt>
      <trkpt lat="48.83666" lon="-3.31742">
        <ele>7</ele>
        <time>2015-12-04T15:04:35Z</time>
      </trkpt>
      <trkpt lat="48.83665" lon="-3.31741">
        <ele>7</ele>
        <time>2015-12-04T15:04:36Z</time>
      </trkpt>
      <trkpt lat="48.83663" lon="-3.3173">
        <ele>7</ele>
        <time>2015-12-04T15:04:41Z</time>
      </trkpt>
      <trkpt lat="48.83662" lon="-3.31728">
        <ele>7</ele>
        <time>2015-12-04T15:04:43Z</time>
      </trkpt>
      <trkpt lat="48.83662" lon="-3.31724">
        <ele>6</ele>
        <time>2015-12-04T15:04:45Z</time>
      </trkpt>
      <trkpt lat="48.83661" lon="-3.31722">
        <ele>6</ele>
        <time>2015-12-04T15:04:47Z</time>
      </trkpt>
      <trkpt lat="48.83661" lon="-3.31715">
        <ele>5</ele>
        <time>2015-12-04T15:04:49Z</time>
      </trkpt>
      <trkpt lat="48.8366" lon="-3.31713">
        <ele>4</ele>
        <time>2015-12-04T15:04:50Z</time>
      </trkpt>
      <trkpt lat="48.83659" lon="-3.31712">
        <ele>4</ele>
        <time>2015-12-04T15:04:51Z</time>
      </trkpt>
      <trkpt lat="48.83658" lon="-3.31709">
        <ele>4</ele>
        <time>2015-12-04T15:04:53Z</time>
      </trkpt>
      <trkpt lat="48.83657" lon="-3.31706">
        <ele>3</ele>
        <time>2015-12-04T15:04:55Z</time>
      </trkpt>
      <trkpt lat="48.83655" lon="-3.31704">
        <ele>3</ele>
        <time>2015-12-04T15:04:57Z</time>
      </trkpt>
      <trkpt lat="48.83654" lon="-3.31701">
        <ele>3</ele>
        <time>2015-12-04T15:04:58Z</time>
      </trkpt>
      <trkpt lat="48.83654" lon="-3.31699">
        <ele>3</ele>
        <time>2015-12-04T15:04:59Z</time>
      </trkpt>
      <trkpt lat="48.83653" lon="-3.31697">
        <ele>3</ele>
        <time>2015-12-04T15:05:00Z</time>
      </trkpt>
      <trkpt lat="48.83652" lon="-3.31695">
        <ele>3</ele>
        <time>2015-12-04T15:05:01Z</time>
      </trkpt>
      <trkpt lat="48.8365" lon="-3.3169">
        <ele>4</ele>
        <time>2015-12-04T15:05:04Z</time>
      </trkpt>
      <trkpt lat="48.8364" lon="-3.31634">
        <ele>4</ele>
        <time>2015-12-04T15:05:34Z</time>
      </trkpt>
      <trkpt lat="48.83639" lon="-3.3163">
        <ele>4</ele>
        <time>2015-12-04T15:05:36Z</time>
      </trkpt>
      <trkpt lat="48.83638" lon="-3.31624">
        <ele>4</ele>
        <time>2015-12-04T15:05:41Z</time>
      </trkpt>
      <trkpt lat="48.83636" lon="-3.31622">
        <ele>3</ele>
        <time>2015-12-04T15:05:43Z</time>
      </trkpt>
      <trkpt lat="48.83635" lon="-3.31616">
        <ele>3</ele>
        <time>2015-12-04T15:05:46Z</time>
      </trkpt>
      <trkpt lat="48.83634" lon="-3.31613">
        <ele>2</ele>
        <time>2015-12-04T15:05:48Z</time>
      </trkpt>
      <trkpt lat="48.83635" lon="-3.3161">
        <ele>1</ele>
        <time>2015-12-04T15:05:50Z</time>
      </trkpt>
      <trkpt lat="48.83633" lon="-3.31604">
        <ele>2</ele>
        <time>2015-12-04T15:05:54Z</time>
      </trkpt>
      <trkpt lat="48.83634" lon="-3.31601">
        <ele>2</ele>
        <time>2015-12-04T15:05:55Z</time>
      </trkpt>
      <trkpt lat="48.83634" lon="-3.31579">
        <ele>-1</ele>
        <time>2015-12-04T15:06:05Z</time>
      </trkpt>
      <trkpt lat="48.83631" lon="-3.31575">
        <ele>1</ele>
        <time>2015-12-04T15:06:09Z</time>
      </trkpt>
      <trkpt lat="48.8363" lon="-3.31555">
        <ele>1</ele>
        <time>2015-12-04T15:06:19Z</time>
      </trkpt>
      <trkpt lat="48.83628" lon="-3.31553">
        <ele>2</ele>
        <time>2015-12-04T15:06:21Z</time>
      </trkpt>
      <trkpt lat="48.83628" lon="-3.31551">
        <ele>2</ele>
        <time>2015-12-04T15:06:22Z</time>
      </trkpt>
      <trkpt lat="48.83628" lon="-3.31547">
        <ele>2</ele>
        <time>2015-12-04T15:06:23Z</time>
      </trkpt>
      <trkpt lat="48.83627" lon="-3.31546">
        <ele>2</ele>
        <time>2015-12-04T15:06:24Z</time>
      </trkpt>
      <trkpt lat="48.83628" lon="-3.31543">
        <ele>1</ele>
        <time>2015-12-04T15:06:25Z</time>
      </trkpt>
      <trkpt lat="48.83626" lon="-3.31538">
        <ele>2</ele>
        <time>2015-12-04T15:06:29Z</time>
      </trkpt>
      <trkpt lat="48.83627" lon="-3.31535">
        <ele>3</ele>
        <time>2015-12-04T15:06:31Z</time>
      </trkpt>
      <trkpt lat="48.83625" lon="-3.31532">
        <ele>3</ele>
        <time>2015-12-04T15:06:33Z</time>
      </trkpt>
      <trkpt lat="48.83625" lon="-3.3153">
        <ele>3</ele>
        <time>2015-12-04T15:06:35Z</time>
      </trkpt>
      <trkpt lat="48.83625" lon="-3.3152">
        <ele>1</ele>
        <time>2015-12-04T15:06:40Z</time>
      </trkpt>
      <trkpt lat="48.83625" lon="-3.31518">
        <ele>1</ele>
        <time>2015-12-04T15:06:41Z</time>
      </trkpt>
      <trkpt lat="48.83625" lon="-3.31515">
        <ele>1</ele>
        <time>2015-12-04T15:06:43Z</time>
      </trkpt>
      <trkpt lat="48.83626" lon="-3.31509">
        <ele>1</ele>
        <time>2015-12-04T15:06:45Z</time>
      </trkpt>
      <trkpt lat="48.83625" lon="-3.31506">
        <ele>4.4</ele>
        <time>2015-12-04T15:06:47Z</time>
      </trkpt>
      <trkpt lat="48.83625" lon="-3.31504">
        <ele>4.2</ele>
        <time>2015-12-04T15:06:48Z</time>
      </trkpt>
      <trkpt lat="48.83625" lon="-3.31501">
        <ele>4.1</ele>
        <time>2015-12-04T15:06:50Z</time>
      </trkpt>
      <trkpt lat="48.83625" lon="-3.31496">
        <ele>4</ele>
        <time>2015-12-04T15:06:52Z</time>
      </trkpt>
      <trkpt lat="48.83624" lon="-3.31493">
        <ele>-1</ele>
        <time>2015-12-04T15:06:54Z</time>
      </trkpt>
      <trkpt lat="48.83623" lon="-3.31489">
        <ele>-1</ele>
        <time>2015-12-04T15:06:56Z</time>
      </trkpt>
      <trkpt lat="48.83623" lon="-3.31486">
        <ele>-2</ele>
        <time>2015-12-04T15:06:57Z</time>
      </trkpt>
      <trkpt lat="48.83622" lon="-3.31482">
        <ele>-3</ele>
        <time>2015-12-04T15:07:00Z</time>
      </trkpt>
      <trkpt lat="48.83621" lon="-3.31471">
        <ele>-2</ele>
        <time>2015-12-04T15:07:07Z</time>
      </trkpt>
      <trkpt lat="48.83618" lon="-3.31463">
        <ele>4.8</ele>
        <time>2015-12-04T15:07:12Z</time>
      </trkpt>
      <trkpt lat="48.83617" lon="-3.31447">
        <ele>1</ele>
        <time>2015-12-04T15:07:20Z</time>
      </trkpt>
      <trkpt lat="48.83618" lon="-3.31445">
        <ele>1</ele>
        <time>2015-12-04T15:07:21Z</time>
      </trkpt>
      <trkpt lat="48.83615" lon="-3.3139">
        <ele>6</ele>
        <time>2015-12-04T15:07:51Z</time>
      </trkpt>
      <trkpt lat="48.83616" lon="-3.31383">
        <ele>6</ele>
        <time>2015-12-04T15:07:55Z</time>
      </trkpt>
      <trkpt lat="48.83615" lon="-3.31374">
        <ele>7</ele>
        <time>2015-12-04T15:08:00Z</time>
      </trkpt>
      <trkpt lat="48.83613" lon="-3.31372">
        <ele>7</ele>
        <time>2015-12-04T15:08:02Z</time>
      </trkpt>
      <trkpt lat="48.83616" lon="-3.31363">
        <ele>5</ele>
        <time>2015-12-04T15:08:07Z</time>
      </trkpt>
      <trkpt lat="48.83616" lon="-3.31361">
        <ele>5</ele>
        <time>2015-12-04T15:08:09Z</time>
      </trkpt>
      <trkpt lat="48.83619" lon="-3.31361">
        <ele>5</ele>
        <time>2015-12-04T15:08:11Z</time>
      </trkpt>
      <trkpt lat="48.83621" lon="-3.31363">
        <ele>5</ele>
        <time>2015-12-04T15:08:12Z</time>
      </trkpt>
      <trkpt lat="48.83625" lon="-3.3136">
        <ele>6</ele>
        <time>2015-12-04T15:08:21Z</time>
      </trkpt>
      <trkpt lat="48.83625" lon="-3.31359">
        <ele>8</ele>
        <time>2015-12-04T15:08:46Z</time>
      </trkpt>
      <trkpt lat="48.83624" lon="-3.31356">
        <ele>8</ele>
        <time>2015-12-04T15:08:48Z</time>
      </trkpt>
      <trkpt lat="48.83624" lon="-3.31347">
        <ele>7</ele>
        <time>2015-12-04T15:08:53Z</time>
      </trkpt>
      <trkpt lat="48.83623" lon="-3.31345">
        <ele>7</ele>
        <time>2015-12-04T15:08:54Z</time>
      </trkpt>
      <trkpt lat="48.83623" lon="-3.31341">
        <ele>4</ele>
        <time>2015-12-04T15:08:56Z</time>
      </trkpt>
      <trkpt lat="48.83624" lon="-3.31338">
        <ele>4</ele>
        <time>2015-12-04T15:08:57Z</time>
      </trkpt>
      <trkpt lat="48.83623" lon="-3.31332">
        <ele>2</ele>
        <time>2015-12-04T15:09:01Z</time>
      </trkpt>
      <trkpt lat="48.83623" lon="-3.31326">
        <ele>2</ele>
        <time>2015-12-04T15:09:04Z</time>
      </trkpt>
      <trkpt lat="48.83622" lon="-3.31324">
        <ele>2</ele>
        <time>2015-12-04T15:09:05Z</time>
      </trkpt>
      <trkpt lat="48.83626" lon="-3.313">
        <ele>5</ele>
        <time>2015-12-04T15:09:19Z</time>
      </trkpt>
      <trkpt lat="48.83625" lon="-3.31296">
        <ele>5</ele>
        <time>2015-12-04T15:09:21Z</time>
      </trkpt>
      <trkpt lat="48.83627" lon="-3.31273">
        <ele>3</ele>
        <time>2015-12-04T15:09:34Z</time>
      </trkpt>
      <trkpt lat="48.83626" lon="-3.31269">
        <ele>2</ele>
        <time>2015-12-04T15:09:37Z</time>
      </trkpt>
      <trkpt lat="48.83627" lon="-3.31267">
        <ele>2</ele>
        <time>2015-12-04T15:09:39Z</time>
      </trkpt>
      <trkpt lat="48.83625" lon="-3.31265">
        <ele>2</ele>
        <time>2015-12-04T15:09:40Z</time>
      </trkpt>
      <trkpt lat="48.83627" lon="-3.31261">
        <ele>3</ele>
        <time>2015-12-04T15:09:42Z</time>
      </trkpt>
      <trkpt lat="48.83626" lon="-3.31259">
        <ele>4</ele>
        <time>2015-12-04T15:09:43Z</time>
      </trkpt>
      <trkpt lat="48.83628" lon="-3.31242">
        <ele>8</ele>
        <time>2015-12-04T15:09:54Z</time>
      </trkpt>
      <trkpt lat="48.83627" lon="-3.31238">
        <ele>7</ele>
        <time>2015-12-04T15:09:58Z</time>
      </trkpt>
      <trkpt lat="48.83635" lon="-3.31224">
        <ele>7</ele>
        <time>2015-12-04T15:10:06Z</time>
      </trkpt>
      <trkpt lat="48.83635" lon="-3.31221">
        <ele>6</ele>
        <time>2015-12-04T15:10:08Z</time>
      </trkpt>
      <trkpt lat="48.83635" lon="-3.31218">
        <ele>6</ele>
        <time>2015-12-04T15:10:09Z</time>
      </trkpt>
      <trkpt lat="48.83638" lon="-3.3121">
        <ele>5</ele>
        <time>2015-12-04T15:10:14Z</time>
      </trkpt>
      <trkpt lat="48.83638" lon="-3.31207">
        <ele>5</ele>
        <time>2015-12-04T15:10:15Z</time>
      </trkpt>
      <trkpt lat="48.8364" lon="-3.31202">
        <ele>4</ele>
        <time>2015-12-04T15:10:19Z</time>
      </trkpt>
      <trkpt lat="48.83642" lon="-3.31187">
        <ele>4</ele>
        <time>2015-12-04T15:10:29Z</time>
      </trkpt>
      <trkpt lat="48.83641" lon="-3.31158">
        <ele>4</ele>
        <time>2015-12-04T15:10:44Z</time>
      </trkpt>
      <trkpt lat="48.83643" lon="-3.31151">
        <ele>4</ele>
        <time>2015-12-04T15:10:48Z</time>
      </trkpt>
      <trkpt lat="48.83642" lon="-3.31146">
        <ele>2</ele>
        <time>2015-12-04T15:10:50Z</time>
      </trkpt>
      <trkpt lat="48.83641" lon="-3.31143">
        <ele>2</ele>
        <time>2015-12-04T15:10:52Z</time>
      </trkpt>
      <trkpt lat="48.83641" lon="-3.31141">
        <ele>2</ele>
        <time>2015-12-04T15:10:53Z</time>
      </trkpt>
      <trkpt lat="48.8364" lon="-3.3114">
        <ele>3</ele>
        <time>2015-12-04T15:10:54Z</time>
      </trkpt>
      <trkpt lat="48.83639" lon="-3.31131">
        <ele>3</ele>
        <time>2015-12-04T15:10:57Z</time>
      </trkpt>
      <trkpt lat="48.83632" lon="-3.31109">
        <ele>2</ele>
        <time>2015-12-04T15:11:13Z</time>
      </trkpt>
      <trkpt lat="48.83625" lon="-3.31085">
        <ele>3</ele>
        <time>2015-12-04T15:11:28Z</time>
      </trkpt>
      <trkpt lat="48.83624" lon="-3.31082">
        <ele>4</ele>
        <time>2015-12-04T15:11:30Z</time>
      </trkpt>
      <trkpt lat="48.83624" lon="-3.3108">
        <ele>4</ele>
        <time>2015-12-04T15:11:31Z</time>
      </trkpt>
      <trkpt lat="48.83626" lon="-3.31075">
        <ele>5</ele>
        <time>2015-12-04T15:11:33Z</time>
      </trkpt>
      <trkpt lat="48.83626" lon="-3.3106">
        <ele>4</ele>
        <time>2015-12-04T15:11:40Z</time>
      </trkpt>
      <trkpt lat="48.83629" lon="-3.31056">
        <ele>6</ele>
        <time>2015-12-04T15:11:42Z</time>
      </trkpt>
      <trkpt lat="48.83631" lon="-3.31051">
        <ele>6</ele>
        <time>2015-12-04T15:11:45Z</time>
      </trkpt>
      <trkpt lat="48.83638" lon="-3.31045">
        <ele>8</ele>
        <time>2015-12-04T15:11:51Z</time>
      </trkpt>
      <trkpt lat="48.83649" lon="-3.31044">
        <ele>13</ele>
        <time>2015-12-04T15:12:01Z</time>
      </trkpt>
      <trkpt lat="48.8365" lon="-3.3104">
        <ele>13</ele>
        <time>2015-12-04T15:12:03Z</time>
      </trkpt>
      <trkpt lat="48.83655" lon="-3.31041">
        <ele>14</ele>
        <time>2015-12-04T15:12:07Z</time>
      </trkpt>
      <trkpt lat="48.83669" lon="-3.31028">
        <ele>8</ele>
        <time>2015-12-04T15:12:23Z</time>
      </trkpt>
      <trkpt lat="48.83669" lon="-3.31025">
        <ele>8</ele>
        <time>2015-12-04T15:12:25Z</time>
      </trkpt>
      <trkpt lat="48.8367" lon="-3.31023">
        <ele>8</ele>
        <time>2015-12-04T15:12:27Z</time>
      </trkpt>
      <trkpt lat="48.83672" lon="-3.31023">
        <ele>8</ele>
        <time>2015-12-04T15:12:28Z</time>
      </trkpt>
      <trkpt lat="48.83673" lon="-3.31021">
        <ele>9</ele>
        <time>2015-12-04T15:12:29Z</time>
      </trkpt>
      <trkpt lat="48.8368" lon="-3.31022">
        <ele>9</ele>
        <time>2015-12-04T15:12:35Z</time>
      </trkpt>
      <trkpt lat="48.8368" lon="-3.3102">
        <ele>8</ele>
        <time>2015-12-04T15:12:36Z</time>
      </trkpt>
      <trkpt lat="48.83682" lon="-3.31019">
        <ele>9</ele>
        <time>2015-12-04T15:12:37Z</time>
      </trkpt>
      <trkpt lat="48.83683" lon="-3.31016">
        <ele>9</ele>
        <time>2015-12-04T15:12:39Z</time>
      </trkpt>
      <trkpt lat="48.83685" lon="-3.31015">
        <ele>10</ele>
        <time>2015-12-04T15:12:41Z</time>
      </trkpt>
      <trkpt lat="48.83686" lon="-3.31012">
        <ele>11</ele>
        <time>2015-12-04T15:12:44Z</time>
      </trkpt>
      <trkpt lat="48.83686" lon="-3.3101">
        <ele>11</ele>
        <time>2015-12-04T15:12:45Z</time>
      </trkpt>
      <trkpt lat="48.83686" lon="-3.31008">
        <ele>10</ele>
        <time>2015-12-04T15:12:47Z</time>
      </trkpt>
      <trkpt lat="48.83693" lon="-3.31002">
        <ele>10</ele>
        <time>2015-12-04T15:12:53Z</time>
      </trkpt>
      <trkpt lat="48.83698" lon="-3.30995">
        <ele>10</ele>
        <time>2015-12-04T15:13:01Z</time>
      </trkpt>
      <trkpt lat="48.83698" lon="-3.30992">
        <ele>10</ele>
        <time>2015-12-04T15:13:02Z</time>
      </trkpt>
      <trkpt lat="48.837" lon="-3.30988">
        <ele>10</ele>
        <time>2015-12-04T15:13:04Z</time>
      </trkpt>
      <trkpt lat="48.83702" lon="-3.30976">
        <ele>10</ele>
        <time>2015-12-04T15:13:12Z</time>
      </trkpt>
      <trkpt lat="48.83703" lon="-3.30977">
        <ele>14</ele>
        <time>2015-12-04T15:13:42Z</time>
      </trkpt>
      <trkpt lat="48.83705" lon="-3.30981">
        <ele>14</ele>
        <time>2015-12-04T15:14:23Z</time>
      </trkpt>
      <trkpt lat="48.83704" lon="-3.30973">
        <ele>14</ele>
        <time>2015-12-04T15:14:34Z</time>
      </trkpt>
      <trkpt lat="48.83704" lon="-3.30975">
        <ele>12</ele>
        <time>2015-12-04T15:15:01Z</time>
      </trkpt>
      <trkpt lat="48.83701" lon="-3.30976">
        <ele>12</ele>
        <time>2015-12-04T15:15:14Z</time>
      </trkpt>
      <trkpt lat="48.83699" lon="-3.30975">
        <ele>12</ele>
        <time>2015-12-04T15:15:27Z</time>
      </trkpt>
      <trkpt lat="48.83702" lon="-3.30974">
        <ele>12</ele>
        <time>2015-12-04T15:15:40Z</time>
      </trkpt>
      <trkpt lat="48.83701" lon="-3.30971">
        <ele>12</ele>
        <time>2015-12-04T15:15:54Z</time>
      </trkpt>
      <trkpt lat="48.83701" lon="-3.30968">
        <ele>11</ele>
        <time>2015-12-04T15:16:08Z</time>
      </trkpt>
      <trkpt lat="48.83701" lon="-3.30965">
        <ele>9</ele>
        <time>2015-12-04T15:17:19Z</time>
      </trkpt>
      <trkpt lat="48.837" lon="-3.3096">
        <ele>9</ele>
        <time>2015-12-04T15:17:22Z</time>
      </trkpt>
      <trkpt lat="48.83701" lon="-3.30958">
        <ele>9</ele>
        <time>2015-12-04T15:17:24Z</time>
      </trkpt>
      <trkpt lat="48.837" lon="-3.30954">
        <ele>9</ele>
        <time>2015-12-04T15:17:26Z</time>
      </trkpt>
      <trkpt lat="48.83702" lon="-3.30951">
        <ele>8</ele>
        <time>2015-12-04T15:17:31Z</time>
      </trkpt>
      <trkpt lat="48.83702" lon="-3.30948">
        <ele>8</ele>
        <time>2015-12-04T15:17:33Z</time>
      </trkpt>
      <trkpt lat="48.83705" lon="-3.30945">
        <ele>7</ele>
        <time>2015-12-04T15:17:35Z</time>
      </trkpt>
      <trkpt lat="48.83704" lon="-3.30932">
        <ele>9</ele>
        <time>2015-12-04T15:17:43Z</time>
      </trkpt>
      <trkpt lat="48.83703" lon="-3.30931">
        <ele>9</ele>
        <time>2015-12-04T15:17:44Z</time>
      </trkpt>
      <trkpt lat="48.83705" lon="-3.30927">
        <ele>8</ele>
        <time>2015-12-04T15:17:47Z</time>
      </trkpt>
      <trkpt lat="48.83705" lon="-3.30925">
        <ele>8</ele>
        <time>2015-12-04T15:17:48Z</time>
      </trkpt>
      <trkpt lat="48.83704" lon="-3.30918">
        <ele>7</ele>
        <time>2015-12-04T15:17:53Z</time>
      </trkpt>
      <trkpt lat="48.83706" lon="-3.30899">
        <ele>5</ele>
        <time>2015-12-04T15:18:05Z</time>
      </trkpt>
      <trkpt lat="48.83705" lon="-3.30897">
        <ele>5</ele>
        <time>2015-12-04T15:18:06Z</time>
      </trkpt>
      <trkpt lat="48.83706" lon="-3.30893">
        <ele>5</ele>
        <time>2015-12-04T15:18:08Z</time>
      </trkpt>
      <trkpt lat="48.83706" lon="-3.3089">
        <ele>5</ele>
        <time>2015-12-04T15:18:11Z</time>
      </trkpt>
      <trkpt lat="48.83709" lon="-3.3088">
        <ele>5</ele>
        <time>2015-12-04T15:18:16Z</time>
      </trkpt>
      <trkpt lat="48.83709" lon="-3.30877">
        <ele>5</ele>
        <time>2015-12-04T15:18:18Z</time>
      </trkpt>
      <trkpt lat="48.83715" lon="-3.30834">
        <ele>4</ele>
        <time>2015-12-04T15:18:48Z</time>
      </trkpt>
      <trkpt lat="48.83714" lon="-3.30831">
        <ele>3</ele>
        <time>2015-12-04T15:18:49Z</time>
      </trkpt>
      <trkpt lat="48.83714" lon="-3.30828">
        <ele>2</ele>
        <time>2015-12-04T15:18:51Z</time>
      </trkpt>
      <trkpt lat="48.83713" lon="-3.30826">
        <ele>2</ele>
        <time>2015-12-04T15:18:53Z</time>
      </trkpt>
      <trkpt lat="48.83711" lon="-3.30824">
        <ele>5</ele>
        <time>2015-12-04T15:18:56Z</time>
      </trkpt>
      <trkpt lat="48.83709" lon="-3.30822">
        <ele>7</ele>
        <time>2015-12-04T15:18:59Z</time>
      </trkpt>
      <trkpt lat="48.83708" lon="-3.30819">
        <ele>8</ele>
        <time>2015-12-04T15:19:02Z</time>
      </trkpt>
      <trkpt lat="48.83707" lon="-3.30813">
        <ele>8</ele>
        <time>2015-12-04T15:19:05Z</time>
      </trkpt>
      <trkpt lat="48.83706" lon="-3.3081">
        <ele>9</ele>
        <time>2015-12-04T15:19:07Z</time>
      </trkpt>
      <trkpt lat="48.83705" lon="-3.30805">
        <ele>9</ele>
        <time>2015-12-04T15:19:10Z</time>
      </trkpt>
      <trkpt lat="48.83703" lon="-3.30805">
        <ele>8</ele>
        <time>2015-12-04T15:19:12Z</time>
      </trkpt>
      <trkpt lat="48.83701" lon="-3.30803">
        <ele>8</ele>
        <time>2015-12-04T15:19:14Z</time>
      </trkpt>
      <trkpt lat="48.83701" lon="-3.30801">
        <ele>8</ele>
        <time>2015-12-04T15:19:16Z</time>
      </trkpt>
      <trkpt lat="48.83696" lon="-3.3078">
        <ele>8</ele>
        <time>2015-12-04T15:19:28Z</time>
      </trkpt>
      <trkpt lat="48.83695" lon="-3.30778">
        <ele>8</ele>
        <time>2015-12-04T15:19:29Z</time>
      </trkpt>
      <trkpt lat="48.83693" lon="-3.30777">
        <ele>6</ele>
        <time>2015-12-04T15:19:30Z</time>
      </trkpt>
      <trkpt lat="48.83694" lon="-3.30774">
        <ele>6</ele>
        <time>2015-12-04T15:19:32Z</time>
      </trkpt>
      <trkpt lat="48.83693" lon="-3.30772">
        <ele>6</ele>
        <time>2015-12-04T15:19:34Z</time>
      </trkpt>
      <trkpt lat="48.83693" lon="-3.30769">
        <ele>6</ele>
        <time>2015-12-04T15:19:37Z</time>
      </trkpt>
      <trkpt lat="48.83692" lon="-3.30767">
        <ele>6</ele>
        <time>2015-12-04T15:19:39Z</time>
      </trkpt>
      <trkpt lat="48.83689" lon="-3.30763">
        <ele>7</ele>
        <time>2015-12-04T15:19:43Z</time>
      </trkpt>
      <trkpt lat="48.83676" lon="-3.30758">
        <ele>5</ele>
        <time>2015-12-04T15:19:55Z</time>
      </trkpt>
      <trkpt lat="48.83672" lon="-3.30761">
        <ele>4</ele>
        <time>2015-12-04T15:20:00Z</time>
      </trkpt>
      <trkpt lat="48.83671" lon="-3.30765">
        <ele>4</ele>
        <time>2015-12-04T15:20:03Z</time>
      </trkpt>
      <trkpt lat="48.83669" lon="-3.30765">
        <ele>4</ele>
        <time>2015-12-04T15:20:05Z</time>
      </trkpt>
      <trkpt lat="48.83668" lon="-3.30767">
        <ele>4</ele>
        <time>2015-12-04T15:20:06Z</time>
      </trkpt>
      <trkpt lat="48.83669" lon="-3.30769">
        <ele>5</ele>
        <time>2015-12-04T15:20:08Z</time>
      </trkpt>
      <trkpt lat="48.83644" lon="-3.30799">
        <ele>9</ele>
        <time>2015-12-04T15:20:39Z</time>
      </trkpt>
      <trkpt lat="48.8364" lon="-3.30804">
        <ele>9</ele>
        <time>2015-12-04T15:20:43Z</time>
      </trkpt>
      <trkpt lat="48.8364" lon="-3.30808">
        <ele>9</ele>
        <time>2015-12-04T15:20:45Z</time>
      </trkpt>
      <trkpt lat="48.83638" lon="-3.30812">
        <ele>10</ele>
        <time>2015-12-04T15:20:48Z</time>
      </trkpt>
      <trkpt lat="48.83637" lon="-3.30813">
        <ele>10</ele>
        <time>2015-12-04T15:20:49Z</time>
      </trkpt>
      <trkpt lat="48.83607" lon="-3.30851">
        <ele>6</ele>
        <time>2015-12-04T15:21:20Z</time>
      </trkpt>
      <trkpt lat="48.83605" lon="-3.30853">
        <ele>6</ele>
        <time>2015-12-04T15:21:22Z</time>
      </trkpt>
      <trkpt lat="48.83605" lon="-3.30856">
        <ele>6</ele>
        <time>2015-12-04T15:21:24Z</time>
      </trkpt>
      <trkpt lat="48.83603" lon="-3.30858">
        <ele>5</ele>
        <time>2015-12-04T15:21:26Z</time>
      </trkpt>
      <trkpt lat="48.83602" lon="-3.30862">
        <ele>6</ele>
        <time>2015-12-04T15:21:28Z</time>
      </trkpt>
      <trkpt lat="48.83586" lon="-3.30913">
        <ele>6</ele>
        <time>2015-12-04T15:21:57Z</time>
      </trkpt>
      <trkpt lat="48.83583" lon="-3.30915">
        <ele>5</ele>
        <time>2015-12-04T15:21:59Z</time>
      </trkpt>
      <trkpt lat="48.83582" lon="-3.30918">
        <ele>5</ele>
        <time>2015-12-04T15:22:01Z</time>
      </trkpt>
      <trkpt lat="48.83577" lon="-3.30931">
        <ele>4</ele>
        <time>2015-12-04T15:22:10Z</time>
      </trkpt>
      <trkpt lat="48.83578" lon="-3.30939">
        <ele>5</ele>
        <time>2015-12-04T15:22:17Z</time>
      </trkpt>
      <trkpt lat="48.83575" lon="-3.30952">
        <ele>3</ele>
        <time>2015-12-04T15:22:33Z</time>
      </trkpt>
      <trkpt lat="48.83567" lon="-3.30966">
        <ele>5</ele>
        <time>2015-12-04T15:22:39Z</time>
      </trkpt>
      <trkpt lat="48.83562" lon="-3.3097">
        <ele>4</ele>
        <time>2015-12-04T15:22:42Z</time>
      </trkpt>
      <trkpt lat="48.8356" lon="-3.30969">
        <ele>4</ele>
        <time>2015-12-04T15:22:44Z</time>
      </trkpt>
      <trkpt lat="48.83555" lon="-3.30975">
        <ele>5</ele>
        <time>2015-12-04T15:22:47Z</time>
      </trkpt>
      <trkpt lat="48.83549" lon="-3.30979">
        <ele>9</ele>
        <time>2015-12-04T15:22:51Z</time>
      </trkpt>
      <trkpt lat="48.83543" lon="-3.30993">
        <ele>11</ele>
        <time>2015-12-04T15:22:59Z</time>
      </trkpt>
      <trkpt lat="48.83544" lon="-3.30994">
        <ele>11</ele>
        <time>2015-12-04T15:23:01Z</time>
      </trkpt>
      <trkpt lat="48.83546" lon="-3.30999">
        <ele>11</ele>
        <time>2015-12-04T15:23:04Z</time>
      </trkpt>
      <trkpt lat="48.83549" lon="-3.31001">
        <ele>11</ele>
        <time>2015-12-04T15:23:10Z</time>
      </trkpt>
      <trkpt lat="48.83552" lon="-3.30997">
        <ele>11</ele>
        <time>2015-12-04T15:23:11Z</time>
      </trkpt>
      <trkpt lat="48.8355" lon="-3.31001">
        <ele>10</ele>
        <time>2015-12-04T15:23:23Z</time>
      </trkpt>
      <trkpt lat="48.83548" lon="-3.31002">
        <ele>11</ele>
        <time>2015-12-04T15:23:32Z</time>
      </trkpt>
      <trkpt lat="48.83558" lon="-3.31004">
        <ele>12</ele>
        <time>2015-12-04T15:23:52Z</time>
      </trkpt>
      <trkpt lat="48.8356" lon="-3.31007">
        <ele>13</ele>
        <time>2015-12-04T15:23:54Z</time>
      </trkpt>
      <trkpt lat="48.83592" lon="-3.3102">
        <ele>9</ele>
        <time>2015-12-04T15:24:23Z</time>
      </trkpt>
      <trkpt lat="48.83595" lon="-3.31017">
        <ele>9</ele>
        <time>2015-12-04T15:24:24Z</time>
      </trkpt>
      <trkpt lat="48.83621" lon="-3.31053">
        <ele>11</ele>
        <time>2015-12-04T15:24:54Z</time>
      </trkpt>
      <trkpt lat="48.83632" lon="-3.31089">
        <ele>4</ele>
        <time>2015-12-04T15:25:20Z</time>
      </trkpt>
      <trkpt lat="48.83631" lon="-3.31092">
        <ele>4</ele>
        <time>2015-12-04T15:25:22Z</time>
      </trkpt>
      <trkpt lat="48.83634" lon="-3.31099">
        <ele>4</ele>
        <time>2015-12-04T15:25:27Z</time>
      </trkpt>
      <trkpt lat="48.83633" lon="-3.31101">
        <ele>4</ele>
        <time>2015-12-04T15:25:28Z</time>
      </trkpt>
      <trkpt lat="48.83645" lon="-3.31156">
        <ele>7</ele>
        <time>2015-12-04T15:25:59Z</time>
      </trkpt>
      <trkpt lat="48.83645" lon="-3.31185">
        <ele>10</ele>
        <time>2015-12-04T15:26:16Z</time>
      </trkpt>
      <trkpt lat="48.83644" lon="-3.31186">
        <ele>10</ele>
        <time>2015-12-04T15:26:17Z</time>
      </trkpt>
      <trkpt lat="48.83643" lon="-3.3119">
        <ele>9</ele>
        <time>2015-12-04T15:26:19Z</time>
      </trkpt>
      <trkpt lat="48.83637" lon="-3.31209">
        <ele>5</ele>
        <time>2015-12-04T15:26:29Z</time>
      </trkpt>
      <trkpt lat="48.83638" lon="-3.31216">
        <ele>6</ele>
        <time>2015-12-04T15:26:33Z</time>
      </trkpt>
      <trkpt lat="48.83637" lon="-3.31221">
        <ele>7</ele>
        <time>2015-12-04T15:26:36Z</time>
      </trkpt>
      <trkpt lat="48.83635" lon="-3.31222">
        <ele>8</ele>
        <time>2015-12-04T15:26:37Z</time>
      </trkpt>
      <trkpt lat="48.83631" lon="-3.31244">
        <ele>6</ele>
        <time>2015-12-04T15:26:49Z</time>
      </trkpt>
      <trkpt lat="48.83634" lon="-3.31248">
        <ele>7</ele>
        <time>2015-12-04T15:26:52Z</time>
      </trkpt>
      <trkpt lat="48.83623" lon="-3.31306">
        <ele>3</ele>
        <time>2015-12-04T15:27:22Z</time>
      </trkpt>
      <trkpt lat="48.83623" lon="-3.31309">
        <ele>3</ele>
        <time>2015-12-04T15:27:24Z</time>
      </trkpt>
      <trkpt lat="48.83618" lon="-3.31343">
        <ele>-2</ele>
        <time>2015-12-04T15:27:43Z</time>
      </trkpt>
      <trkpt lat="48.83619" lon="-3.31346">
        <ele>-2</ele>
        <time>2015-12-04T15:27:45Z</time>
      </trkpt>
      <trkpt lat="48.83617" lon="-3.3135">
        <ele>5.8</ele>
        <time>2015-12-04T15:27:48Z</time>
      </trkpt>
      <trkpt lat="48.83616" lon="-3.31367">
        <ele>3</ele>
        <time>2015-12-04T15:27:57Z</time>
      </trkpt>
      <trkpt lat="48.83617" lon="-3.31369">
        <ele>3</ele>
        <time>2015-12-04T15:27:58Z</time>
      </trkpt>
      <trkpt lat="48.83615" lon="-3.31392">
        <ele>5.3</ele>
        <time>2015-12-04T15:28:11Z</time>
      </trkpt>
      <trkpt lat="48.83617" lon="-3.31394">
        <ele>1</ele>
        <time>2015-12-04T15:28:12Z</time>
      </trkpt>
      <trkpt lat="48.83618" lon="-3.31398">
        <ele>3</ele>
        <time>2015-12-04T15:28:14Z</time>
      </trkpt>
      <trkpt lat="48.83616" lon="-3.31405">
        <ele>2</ele>
        <time>2015-12-04T15:28:18Z</time>
      </trkpt>
      <trkpt lat="48.8362" lon="-3.31458">
        <ele>5</ele>
        <time>2015-12-04T15:28:48Z</time>
      </trkpt>
      <trkpt lat="48.8362" lon="-3.31461">
        <ele>5</ele>
        <time>2015-12-04T15:28:49Z</time>
      </trkpt>
      <trkpt lat="48.83622" lon="-3.31467">
        <ele>5</ele>
        <time>2015-12-04T15:28:53Z</time>
      </trkpt>
      <trkpt lat="48.83619" lon="-3.31485">
        <ele>3</ele>
        <time>2015-12-04T15:29:03Z</time>
      </trkpt>
      <trkpt lat="48.83621" lon="-3.31492">
        <ele>2</ele>
        <time>2015-12-04T15:29:07Z</time>
      </trkpt>
      <trkpt lat="48.83621" lon="-3.31495">
        <ele>2</ele>
        <time>2015-12-04T15:29:08Z</time>
      </trkpt>
      <trkpt lat="48.83623" lon="-3.31501">
        <ele>4</ele>
        <time>2015-12-04T15:29:12Z</time>
      </trkpt>
      <trkpt lat="48.83621" lon="-3.31509">
        <ele>3</ele>
        <time>2015-12-04T15:29:16Z</time>
      </trkpt>
      <trkpt lat="48.83624" lon="-3.31518">
        <ele>1</ele>
        <time>2015-12-04T15:29:21Z</time>
      </trkpt>
      <trkpt lat="48.83623" lon="-3.31522">
        <ele>5.5</ele>
        <time>2015-12-04T15:29:23Z</time>
      </trkpt>
      <trkpt lat="48.83624" lon="-3.31525">
        <ele>5.5</ele>
        <time>2015-12-04T15:29:25Z</time>
      </trkpt>
      <trkpt lat="48.83624" lon="-3.31528">
        <ele>5.7</ele>
        <time>2015-12-04T15:29:27Z</time>
      </trkpt>
      <trkpt lat="48.83626" lon="-3.31529">
        <ele>5.3</ele>
        <time>2015-12-04T15:29:28Z</time>
      </trkpt>
      <trkpt lat="48.83628" lon="-3.31564">
        <ele>-2</ele>
        <time>2015-12-04T15:29:48Z</time>
      </trkpt>
      <trkpt lat="48.83631" lon="-3.31565">
        <ele>-1</ele>
        <time>2015-12-04T15:29:50Z</time>
      </trkpt>
      <trkpt lat="48.83631" lon="-3.31579">
        <ele>3</ele>
        <time>2015-12-04T15:29:59Z</time>
      </trkpt>
      <trkpt lat="48.83634" lon="-3.31586">
        <ele>5</ele>
        <time>2015-12-04T15:30:03Z</time>
      </trkpt>
      <trkpt lat="48.83633" lon="-3.31602">
        <ele>5</ele>
        <time>2015-12-04T15:30:12Z</time>
      </trkpt>
      <trkpt lat="48.83642" lon="-3.31648">
        <ele>5</ele>
        <time>2015-12-04T15:30:38Z</time>
      </trkpt>
      <trkpt lat="48.83641" lon="-3.3165">
        <ele>5</ele>
        <time>2015-12-04T15:30:39Z</time>
      </trkpt>
      <trkpt lat="48.83644" lon="-3.31662">
        <ele>6</ele>
        <time>2015-12-04T15:30:46Z</time>
      </trkpt>
      <trkpt lat="48.83643" lon="-3.31665">
        <ele>6</ele>
        <time>2015-12-04T15:30:48Z</time>
      </trkpt>
      <trkpt lat="48.83649" lon="-3.31682">
        <ele>7</ele>
        <time>2015-12-04T15:30:58Z</time>
      </trkpt>
      <trkpt lat="48.83649" lon="-3.31686">
        <ele>6</ele>
        <time>2015-12-04T15:31:00Z</time>
      </trkpt>
      <trkpt lat="48.83654" lon="-3.31696">
        <ele>6</ele>
        <time>2015-12-04T15:31:07Z</time>
      </trkpt>
      <trkpt lat="48.83653" lon="-3.317">
        <ele>5</ele>
        <time>2015-12-04T15:31:10Z</time>
      </trkpt>
      <trkpt lat="48.83661" lon="-3.31719">
        <ele>1</ele>
        <time>2015-12-04T15:31:24Z</time>
      </trkpt>
      <trkpt lat="48.8366" lon="-3.31721">
        <ele>1</ele>
        <time>2015-12-04T15:31:25Z</time>
      </trkpt>
      <trkpt lat="48.83662" lon="-3.31732">
        <ele>4.7</ele>
        <time>2015-12-04T15:31:31Z</time>
      </trkpt>
      <trkpt lat="48.83663" lon="-3.31734">
        <ele>2</ele>
        <time>2015-12-04T15:31:32Z</time>
      </trkpt>
      <trkpt lat="48.83666" lon="-3.31752">
        <ele>1</ele>
        <time>2015-12-04T15:31:41Z</time>
      </trkpt>
      <trkpt lat="48.83668" lon="-3.31754">
        <ele>3</ele>
        <time>2015-12-04T15:31:43Z</time>
      </trkpt>
      <trkpt lat="48.8367" lon="-3.31778">
        <ele>3</ele>
        <time>2015-12-04T15:31:56Z</time>
      </trkpt>
      <trkpt lat="48.83667" lon="-3.3178">
        <ele>1</ele>
        <time>2015-12-04T15:31:57Z</time>
      </trkpt>
      <trkpt lat="48.83667" lon="-3.31782">
        <ele>1</ele>
        <time>2015-12-04T15:31:58Z</time>
      </trkpt>
      <trkpt lat="48.83676" lon="-3.31809">
        <ele>5</ele>
        <time>2015-12-04T15:32:14Z</time>
      </trkpt>
      <trkpt lat="48.8368" lon="-3.31805">
        <ele>6</ele>
        <time>2015-12-04T15:32:15Z</time>
      </trkpt>
      <trkpt lat="48.8368" lon="-3.3181">
        <ele>7</ele>
        <time>2015-12-04T15:32:18Z</time>
      </trkpt>
      <trkpt lat="48.83689" lon="-3.3183">
        <ele>6</ele>
        <time>2015-12-04T15:32:29Z</time>
      </trkpt>
      <trkpt lat="48.83692" lon="-3.31831">
        <ele>5</ele>
        <time>2015-12-04T15:32:31Z</time>
      </trkpt>
      <trkpt lat="48.83694" lon="-3.3183">
        <ele>4</ele>
        <time>2015-12-04T15:32:32Z</time>
      </trkpt>
      <trkpt lat="48.8371" lon="-3.31838">
        <ele>2</ele>
        <time>2015-12-04T15:32:49Z</time>
      </trkpt>
      <trkpt lat="48.83714" lon="-3.31836">
        <ele>1</ele>
        <time>2015-12-04T15:32:51Z</time>
      </trkpt>
      <trkpt lat="48.83742" lon="-3.3185">
        <ele>4</ele>
        <time>2015-12-04T15:33:17Z</time>
      </trkpt>
      <trkpt lat="48.83742" lon="-3.31853">
        <ele>4</ele>
        <time>2015-12-04T15:33:18Z</time>
      </trkpt>
      <trkpt lat="48.83751" lon="-3.3186">
        <ele>8</ele>
        <time>2015-12-04T15:33:25Z</time>
      </trkpt>
      <trkpt lat="48.83753" lon="-3.31863">
        <ele>7</ele>
        <time>2015-12-04T15:33:28Z</time>
      </trkpt>
      <trkpt lat="48.83749" lon="-3.31866">
        <ele>5</ele>
        <time>2015-12-04T15:33:31Z</time>
      </trkpt>
      <trkpt lat="48.83755" lon="-3.3189">
        <ele>3</ele>
        <time>2015-12-04T15:33:43Z</time>
      </trkpt>
      <trkpt lat="48.83754" lon="-3.31906">
        <ele>2</ele>
        <time>2015-12-04T15:33:50Z</time>
      </trkpt>
      <trkpt lat="48.83757" lon="-3.31908">
        <ele>2</ele>
        <time>2015-12-04T15:33:51Z</time>
      </trkpt>
      <trkpt lat="48.83761" lon="-3.31913">
        <ele>2</ele>
        <time>2015-12-04T15:33:54Z</time>
      </trkpt>
      <trkpt lat="48.83764" lon="-3.31928">
        <ele>5</ele>
        <time>2015-12-04T15:34:01Z</time>
      </trkpt>
      <trkpt lat="48.83764" lon="-3.31931">
        <ele>4</ele>
        <time>2015-12-04T15:34:04Z</time>
      </trkpt>
      <trkpt lat="48.83766" lon="-3.31956">
        <ele>2</ele>
        <time>2015-12-04T15:34:19Z</time>
      </trkpt>
      <trkpt lat="48.83767" lon="-3.31958">
        <ele>2</ele>
        <time>2015-12-04T15:34:20Z</time>
      </trkpt>
      <trkpt lat="48.83766" lon="-3.31962">
        <ele>1</ele>
        <time>2015-12-04T15:34:22Z</time>
      </trkpt>
      <trkpt lat="48.83767" lon="-3.32001">
        <ele>2</ele>
        <time>2015-12-04T15:34:43Z</time>
      </trkpt>
      <trkpt lat="48.83766" lon="-3.32002">
        <ele>2</ele>
        <time>2015-12-04T15:34:44Z</time>
      </trkpt>
      <trkpt lat="48.83765" lon="-3.32004">
        <ele>2</ele>
        <time>2015-12-04T15:34:45Z</time>
      </trkpt>
      <trkpt lat="48.83764" lon="-3.32006">
        <ele>2</ele>
        <time>2015-12-04T15:34:46Z</time>
      </trkpt>
      <trkpt lat="48.83765" lon="-3.32009">
        <ele>3</ele>
        <time>2015-12-04T15:34:48Z</time>
      </trkpt>
      <trkpt lat="48.83765" lon="-3.32013">
        <ele>4</ele>
        <time>2015-12-04T15:34:50Z</time>
      </trkpt>
      <trkpt lat="48.83764" lon="-3.32015">
        <ele>3</ele>
        <time>2015-12-04T15:34:51Z</time>
      </trkpt>
      <trkpt lat="48.83766" lon="-3.32019">
        <ele>2</ele>
        <time>2015-12-04T15:34:53Z</time>
      </trkpt>
      <trkpt lat="48.83765" lon="-3.32021">
        <ele>2</ele>
        <time>2015-12-04T15:34:54Z</time>
      </trkpt>
      <trkpt lat="48.83766" lon="-3.32028">
        <ele>1</ele>
        <time>2015-12-04T15:34:57Z</time>
      </trkpt>
      <trkpt lat="48.83767" lon="-3.32031">
        <ele>1</ele>
        <time>2015-12-04T15:34:59Z</time>
      </trkpt>
      <trkpt lat="48.83767" lon="-3.32039">
        <ele>-2</ele>
        <time>2015-12-04T15:35:04Z</time>
      </trkpt>
      <trkpt lat="48.83771" lon="-3.32041">
        <ele>-2</ele>
        <time>2015-12-04T15:35:07Z</time>
      </trkpt>
      <trkpt lat="48.8377" lon="-3.32053">
        <ele>-4</ele>
        <time>2015-12-04T15:35:13Z</time>
      </trkpt>
      <trkpt lat="48.83772" lon="-3.32057">
        <ele>-5</ele>
        <time>2015-12-04T15:35:15Z</time>
      </trkpt>
      <trkpt lat="48.83769" lon="-3.32076">
        <ele>-2</ele>
        <time>2015-12-04T15:35:26Z</time>
      </trkpt>
      <trkpt lat="48.8377" lon="-3.3208">
        <ele>8.6</ele>
        <time>2015-12-04T15:35:28Z</time>
      </trkpt>
      <trkpt lat="48.83771" lon="-3.32091">
        <ele>5</ele>
        <time>2015-12-04T15:35:34Z</time>
      </trkpt>
      <trkpt lat="48.83768" lon="-3.32101">
        <ele>3</ele>
        <time>2015-12-04T15:35:40Z</time>
      </trkpt>
      <trkpt lat="48.83769" lon="-3.32104">
        <ele>4</ele>
        <time>2015-12-04T15:35:42Z</time>
      </trkpt>
      <trkpt lat="48.83767" lon="-3.32119">
        <ele>4</ele>
        <time>2015-12-04T15:35:51Z</time>
      </trkpt>
      <trkpt lat="48.83769" lon="-3.32121">
        <ele>4</ele>
        <time>2015-12-04T15:35:52Z</time>
      </trkpt>
      <trkpt lat="48.83769" lon="-3.32145">
        <ele>1</ele>
        <time>2015-12-04T15:36:05Z</time>
      </trkpt>
      <trkpt lat="48.83773" lon="-3.32154">
        <ele>4</ele>
        <time>2015-12-04T15:36:10Z</time>
      </trkpt>
      <trkpt lat="48.83773" lon="-3.32198">
        <ele>9</ele>
        <time>2015-12-04T15:36:34Z</time>
      </trkpt>
      <trkpt lat="48.83771" lon="-3.32199">
        <ele>7</ele>
        <time>2015-12-04T15:36:35Z</time>
      </trkpt>
      <trkpt lat="48.8376" lon="-3.32243">
        <ele>5</ele>
        <time>2015-12-04T15:37:01Z</time>
      </trkpt>
      <trkpt lat="48.8373" lon="-3.32276">
        <ele>5</ele>
        <time>2015-12-04T15:37:31Z</time>
      </trkpt>
      <trkpt lat="48.83728" lon="-3.32277">
        <ele>5</ele>
        <time>2015-12-04T15:37:32Z</time>
      </trkpt>
      <trkpt lat="48.83708" lon="-3.32315">
        <ele>1</ele>
        <time>2015-12-04T15:38:03Z</time>
      </trkpt>
      <trkpt lat="48.83706" lon="-3.32316">
        <ele>1</ele>
        <time>2015-12-04T15:38:05Z</time>
      </trkpt>
      <trkpt lat="48.83704" lon="-3.32321">
        <ele>1</ele>
        <time>2015-12-04T15:38:10Z</time>
      </trkpt>
      <trkpt lat="48.83703" lon="-3.32322">
        <ele>2</ele>
        <time>2015-12-04T15:38:11Z</time>
      </trkpt>
      <trkpt lat="48.83681" lon="-3.32364">
        <ele>4</ele>
        <time>2015-12-04T15:38:42Z</time>
      </trkpt>
      <trkpt lat="48.83674" lon="-3.32377">
        <ele>3</ele>
        <time>2015-12-04T15:38:52Z</time>
      </trkpt>
      <trkpt lat="48.83645" lon="-3.32411">
        <ele>3</ele>
        <time>2015-12-04T15:39:23Z</time>
      </trkpt>
      <trkpt lat="48.83643" lon="-3.3241">
        <ele>3</ele>
        <time>2015-12-04T15:39:25Z</time>
      </trkpt>
      <trkpt lat="48.83614" lon="-3.32446">
        <ele>7</ele>
        <time>2015-12-04T15:39:55Z</time>
      </trkpt>
      <trkpt lat="48.83607" lon="-3.32455">
        <ele>4</ele>
        <time>2015-12-04T15:40:04Z</time>
      </trkpt>
      <trkpt lat="48.83606" lon="-3.32458">
        <ele>4</ele>
        <time>2015-12-04T15:40:06Z</time>
      </trkpt>
      <trkpt lat="48.83602" lon="-3.32462">
        <ele>5</ele>
        <time>2015-12-04T15:40:10Z</time>
      </trkpt>
      <trkpt lat="48.83601" lon="-3.32466">
        <ele>5</ele>
        <time>2015-12-04T15:40:12Z</time>
      </trkpt>
      <trkpt lat="48.83598" lon="-3.32469">
        <ele>5</ele>
        <time>2015-12-04T15:40:15Z</time>
      </trkpt>
      <trkpt lat="48.83597" lon="-3.32472">
        <ele>5</ele>
        <time>2015-12-04T15:40:17Z</time>
      </trkpt>
      <trkpt lat="48.83595" lon="-3.32473">
        <ele>5</ele>
        <time>2015-12-04T15:40:19Z</time>
      </trkpt>
      <trkpt lat="48.83595" lon="-3.32477">
        <ele>4</ele>
        <time>2015-12-04T15:40:21Z</time>
      </trkpt>
      <trkpt lat="48.83592" lon="-3.32481">
        <ele>4</ele>
        <time>2015-12-04T15:40:24Z</time>
      </trkpt>
      <trkpt lat="48.83592" lon="-3.32484">
        <ele>4</ele>
        <time>2015-12-04T15:40:26Z</time>
      </trkpt>
      <trkpt lat="48.8359" lon="-3.32488">
        <ele>4</ele>
        <time>2015-12-04T15:40:28Z</time>
      </trkpt>
      <trkpt lat="48.83569" lon="-3.32528">
        <ele>3</ele>
        <time>2015-12-04T15:40:58Z</time>
      </trkpt>
      <trkpt lat="48.83567" lon="-3.32537">
        <ele>5</ele>
        <time>2015-12-04T15:41:03Z</time>
      </trkpt>
      <trkpt lat="48.83544" lon="-3.32581">
        <ele>4</ele>
        <time>2015-12-04T15:41:34Z</time>
      </trkpt>
      <trkpt lat="48.83527" lon="-3.32622">
        <ele>6.7</ele>
        <time>2015-12-04T15:42:02Z</time>
      </trkpt>
      <trkpt lat="48.83528" lon="-3.32624">
        <ele>6.5</ele>
        <time>2015-12-04T15:42:03Z</time>
      </trkpt>
      <trkpt lat="48.83528" lon="-3.32628">
        <ele>1</ele>
        <time>2015-12-04T15:42:05Z</time>
      </trkpt>
      <trkpt lat="48.83528" lon="-3.32664">
        <ele>3</ele>
        <time>2015-12-04T15:42:27Z</time>
      </trkpt>
      <trkpt lat="48.8353" lon="-3.32665">
        <ele>4</ele>
        <time>2015-12-04T15:42:29Z</time>
      </trkpt>
      <trkpt lat="48.8353" lon="-3.32668">
        <ele>4</ele>
        <time>2015-12-04T15:42:31Z</time>
      </trkpt>
      <trkpt lat="48.83529" lon="-3.3267">
        <ele>4</ele>
        <time>2015-12-04T15:42:33Z</time>
      </trkpt>
      <trkpt lat="48.8353" lon="-3.32679">
        <ele>3</ele>
        <time>2015-12-04T15:42:38Z</time>
      </trkpt>
      <trkpt lat="48.83527" lon="-3.32684">
        <ele>2</ele>
        <time>2015-12-04T15:42:41Z</time>
      </trkpt>
      <trkpt lat="48.8352" lon="-3.32691">
        <ele>6.2</ele>
        <time>2015-12-04T15:42:48Z</time>
      </trkpt>
      <trkpt lat="48.83516" lon="-3.32691">
        <ele>1</ele>
        <time>2015-12-04T15:42:51Z</time>
      </trkpt>
      <trkpt lat="48.83514" lon="-3.32692">
        <ele>2</ele>
        <time>2015-12-04T15:42:53Z</time>
      </trkpt>
      <trkpt lat="48.83506" lon="-3.32692">
        <ele>4</ele>
        <time>2015-12-04T15:43:00Z</time>
      </trkpt>
      <trkpt lat="48.83505" lon="-3.32694">
        <ele>4</ele>
        <time>2015-12-04T15:43:01Z</time>
      </trkpt>
      <trkpt lat="48.83504" lon="-3.32695">
        <ele>4</ele>
        <time>2015-12-04T15:43:02Z</time>
      </trkpt>
      <trkpt lat="48.83502" lon="-3.32695">
        <ele>4</ele>
        <time>2015-12-04T15:43:04Z</time>
      </trkpt>
      <trkpt lat="48.83501" lon="-3.32697">
        <ele>4</ele>
        <time>2015-12-04T15:43:05Z</time>
      </trkpt>
      <trkpt lat="48.83499" lon="-3.32697">
        <ele>5</ele>
        <time>2015-12-04T15:43:07Z</time>
      </trkpt>
      <trkpt lat="48.83498" lon="-3.32699">
        <ele>5</ele>
        <time>2015-12-04T15:43:08Z</time>
      </trkpt>
      <trkpt lat="48.83496" lon="-3.32699">
        <ele>6</ele>
        <time>2015-12-04T15:43:10Z</time>
      </trkpt>
      <trkpt lat="48.83494" lon="-3.327">
        <ele>7</ele>
        <time>2015-12-04T15:43:12Z</time>
      </trkpt>
      <trkpt lat="48.83492" lon="-3.32703">
        <ele>6</ele>
        <time>2015-12-04T15:43:14Z</time>
      </trkpt>
      <trkpt lat="48.8349" lon="-3.32703">
        <ele>6</ele>
        <time>2015-12-04T15:43:16Z</time>
      </trkpt>
      <trkpt lat="48.83463" lon="-3.32729">
        <ele>2</ele>
        <time>2015-12-04T15:43:46Z</time>
      </trkpt>
      <trkpt lat="48.83463" lon="-3.32731">
        <ele>2</ele>
        <time>2015-12-04T15:43:47Z</time>
      </trkpt>
      <trkpt lat="48.83459" lon="-3.32736">
        <ele>2</ele>
        <time>2015-12-04T15:43:51Z</time>
      </trkpt>
      <trkpt lat="48.83455" lon="-3.32738">
        <ele>2</ele>
        <time>2015-12-04T15:43:54Z</time>
      </trkpt>
      <trkpt lat="48.83448" lon="-3.32754">
        <ele>4</ele>
        <time>2015-12-04T15:44:07Z</time>
      </trkpt>
      <trkpt lat="48.83448" lon="-3.32756">
        <ele>5</ele>
        <time>2015-12-04T15:44:08Z</time>
      </trkpt>
      <trkpt lat="48.83443" lon="-3.32766">
        <ele>5</ele>
        <time>2015-12-04T15:44:16Z</time>
      </trkpt>
      <trkpt lat="48.83439" lon="-3.32767">
        <ele>5</ele>
        <time>2015-12-04T15:44:19Z</time>
      </trkpt>
      <trkpt lat="48.83418" lon="-3.32807">
        <ele>3</ele>
        <time>2015-12-04T15:44:49Z</time>
      </trkpt>
      <trkpt lat="48.83413" lon="-3.32813">
        <ele>4</ele>
        <time>2015-12-04T15:44:54Z</time>
      </trkpt>
      <trkpt lat="48.8341" lon="-3.32813">
        <ele>3</ele>
        <time>2015-12-04T15:44:56Z</time>
      </trkpt>
      <trkpt lat="48.83408" lon="-3.32818">
        <ele>2</ele>
        <time>2015-12-04T15:45:00Z</time>
      </trkpt>
      <trkpt lat="48.83404" lon="-3.32822">
        <ele>2</ele>
        <time>2015-12-04T15:45:03Z</time>
      </trkpt>
      <trkpt lat="48.83402" lon="-3.32823">
        <ele>3</ele>
        <time>2015-12-04T15:45:08Z</time>
      </trkpt>
      <trkpt lat="48.83394" lon="-3.32843">
        <ele>5</ele>
        <time>2015-12-04T15:45:21Z</time>
      </trkpt>
      <trkpt lat="48.83392" lon="-3.32843">
        <ele>5</ele>
        <time>2015-12-04T15:45:23Z</time>
      </trkpt>
      <trkpt lat="48.83386" lon="-3.3286">
        <ele>6</ele>
        <time>2015-12-04T15:45:33Z</time>
      </trkpt>
      <trkpt lat="48.83385" lon="-3.32861">
        <ele>6</ele>
        <time>2015-12-04T15:45:34Z</time>
      </trkpt>
      <trkpt lat="48.83383" lon="-3.32862">
        <ele>6</ele>
        <time>2015-12-04T15:45:35Z</time>
      </trkpt>
      <trkpt lat="48.83376" lon="-3.32877">
        <ele>6</ele>
        <time>2015-12-04T15:45:47Z</time>
      </trkpt>
      <trkpt lat="48.83375" lon="-3.32877">
        <ele>6</ele>
        <time>2015-12-04T15:45:49Z</time>
      </trkpt>
      <trkpt lat="48.83356" lon="-3.32907">
        <ele>8</ele>
        <time>2015-12-04T15:46:13Z</time>
      </trkpt>
      <trkpt lat="48.83354" lon="-3.32906">
        <ele>9</ele>
        <time>2015-12-04T15:46:15Z</time>
      </trkpt>
      <trkpt lat="48.83353" lon="-3.32906">
        <ele>9</ele>
        <time>2015-12-04T15:46:17Z</time>
      </trkpt>
      <trkpt lat="48.83351" lon="-3.32904">
        <ele>9</ele>
        <time>2015-12-04T15:46:19Z</time>
      </trkpt>
      <trkpt lat="48.83349" lon="-3.32903">
        <ele>8</ele>
        <time>2015-12-04T15:46:21Z</time>
      </trkpt>
      <trkpt lat="48.83348" lon="-3.32901">
        <ele>8</ele>
        <time>2015-12-04T15:46:22Z</time>
      </trkpt>
      <trkpt lat="48.83344" lon="-3.329">
        <ele>7</ele>
        <time>2015-12-04T15:46:26Z</time>
      </trkpt>
      <trkpt lat="48.83342" lon="-3.32895">
        <ele>6</ele>
        <time>2015-12-04T15:46:30Z</time>
      </trkpt>
      <trkpt lat="48.83341" lon="-3.32892">
        <ele>5</ele>
        <time>2015-12-04T15:46:31Z</time>
      </trkpt>
      <trkpt lat="48.8334" lon="-3.32888">
        <ele>5</ele>
        <time>2015-12-04T15:46:34Z</time>
      </trkpt>
      <trkpt lat="48.83337" lon="-3.32886">
        <ele>5</ele>
        <time>2015-12-04T15:46:36Z</time>
      </trkpt>
      <trkpt lat="48.83337" lon="-3.32884">
        <ele>5</ele>
        <time>2015-12-04T15:46:37Z</time>
      </trkpt>
      <trkpt lat="48.83335" lon="-3.32883">
        <ele>5</ele>
        <time>2015-12-04T15:46:39Z</time>
      </trkpt>
      <trkpt lat="48.83334" lon="-3.32881">
        <ele>4</ele>
        <time>2015-12-04T15:46:41Z</time>
      </trkpt>
      <trkpt lat="48.83333" lon="-3.32878">
        <ele>3</ele>
        <time>2015-12-04T15:46:42Z</time>
      </trkpt>
      <trkpt lat="48.83332" lon="-3.32874">
        <ele>3</ele>
        <time>2015-12-04T15:46:44Z</time>
      </trkpt>
      <trkpt lat="48.83331" lon="-3.32871">
        <ele>4</ele>
        <time>2015-12-04T15:46:47Z</time>
      </trkpt>
      <trkpt lat="48.8333" lon="-3.32868">
        <ele>5</ele>
        <time>2015-12-04T15:46:49Z</time>
      </trkpt>
      <trkpt lat="48.83326" lon="-3.32863">
        <ele>5</ele>
        <time>2015-12-04T15:46:56Z</time>
      </trkpt>
      <trkpt lat="48.83324" lon="-3.32859">
        <ele>5</ele>
        <time>2015-12-04T15:46:59Z</time>
      </trkpt>
      <trkpt lat="48.83323" lon="-3.32857">
        <ele>5</ele>
        <time>2015-12-04T15:47:01Z</time>
      </trkpt>
      <trkpt lat="48.83321" lon="-3.32855">
        <ele>5</ele>
        <time>2015-12-04T15:47:03Z</time>
      </trkpt>
      <trkpt lat="48.83321" lon="-3.32852">
        <ele>4</ele>
        <time>2015-12-04T15:47:04Z</time>
      </trkpt>
      <trkpt lat="48.83319" lon="-3.32847">
        <ele>3</ele>
        <time>2015-12-04T15:47:07Z</time>
      </trkpt>
      <trkpt lat="48.83317" lon="-3.32846">
        <ele>2</ele>
        <time>2015-12-04T15:47:09Z</time>
      </trkpt>
      <trkpt lat="48.83316" lon="-3.32845">
        <ele>2</ele>
        <time>2015-12-04T15:47:10Z</time>
      </trkpt>
      <trkpt lat="48.83315" lon="-3.32844">
        <ele>1</ele>
        <time>2015-12-04T15:47:11Z</time>
      </trkpt>
      <trkpt lat="48.83313" lon="-3.32842">
        <ele>1</ele>
        <time>2015-12-04T15:47:12Z</time>
      </trkpt>
      <trkpt lat="48.83296" lon="-3.32796">
        <ele>1</ele>
        <time>2015-12-04T15:47:42Z</time>
      </trkpt>
      <trkpt lat="48.83294" lon="-3.32793">
        <ele>1</ele>
        <time>2015-12-04T15:47:44Z</time>
      </trkpt>
      <trkpt lat="48.83294" lon="-3.32791">
        <ele>6</ele>
        <time>2015-12-04T15:47:45Z</time>
      </trkpt>
      <trkpt lat="48.83293" lon="-3.32788">
        <ele>6</ele>
        <time>2015-12-04T15:47:47Z</time>
      </trkpt>
      <trkpt lat="48.83291" lon="-3.32786">
        <ele>6</ele>
        <time>2015-12-04T15:47:49Z</time>
      </trkpt>
      <trkpt lat="48.83289" lon="-3.32782">
        <ele>1</ele>
        <time>2015-12-04T15:47:52Z</time>
      </trkpt>
      <trkpt lat="48.83289" lon="-3.32779">
        <ele>1</ele>
        <time>2015-12-04T15:47:54Z</time>
      </trkpt>
      <trkpt lat="48.83288" lon="-3.32778">
        <ele>2</ele>
        <time>2015-12-04T15:47:56Z</time>
      </trkpt>
      <trkpt lat="48.83286" lon="-3.32775">
        <ele>2</ele>
        <time>2015-12-04T15:47:58Z</time>
      </trkpt>
      <trkpt lat="48.83286" lon="-3.32773">
        <ele>2</ele>
        <time>2015-12-04T15:47:59Z</time>
      </trkpt>
      <trkpt lat="48.83285" lon="-3.32771">
        <ele>2</ele>
        <time>2015-12-04T15:48:01Z</time>
      </trkpt>
      <trkpt lat="48.83284" lon="-3.32769">
        <ele>2</ele>
        <time>2015-12-04T15:48:02Z</time>
      </trkpt>
      <trkpt lat="48.83285" lon="-3.32766">
        <ele>6</ele>
        <time>2015-12-04T15:48:05Z</time>
      </trkpt>
      <trkpt lat="48.83284" lon="-3.32762">
        <ele>6</ele>
        <time>2015-12-04T15:48:07Z</time>
      </trkpt>
      <trkpt lat="48.83282" lon="-3.32757">
        <ele>6</ele>
        <time>2015-12-04T15:48:10Z</time>
      </trkpt>
      <trkpt lat="48.83282" lon="-3.32749">
        <ele>1</ele>
        <time>2015-12-04T15:48:14Z</time>
      </trkpt>
      <trkpt lat="48.83281" lon="-3.32748">
        <ele>1</ele>
        <time>2015-12-04T15:48:15Z</time>
      </trkpt>
      <trkpt lat="48.83278" lon="-3.32743">
        <ele>3</ele>
        <time>2015-12-04T15:48:18Z</time>
      </trkpt>
      <trkpt lat="48.83278" lon="-3.32741">
        <ele>3</ele>
        <time>2015-12-04T15:48:19Z</time>
      </trkpt>
      <trkpt lat="48.83277" lon="-3.32739">
        <ele>4</ele>
        <time>2015-12-04T15:48:21Z</time>
      </trkpt>
      <trkpt lat="48.83275" lon="-3.32738">
        <ele>4</ele>
        <time>2015-12-04T15:48:22Z</time>
      </trkpt>
      <trkpt lat="48.83271" lon="-3.32729">
        <ele>7</ele>
        <time>2015-12-04T15:48:27Z</time>
      </trkpt>
      <trkpt lat="48.8327" lon="-3.32727">
        <ele>7</ele>
        <time>2015-12-04T15:48:28Z</time>
      </trkpt>
      <trkpt lat="48.83268" lon="-3.3272">
        <ele>10</ele>
        <time>2015-12-04T15:48:32Z</time>
      </trkpt>
      <trkpt lat="48.83265" lon="-3.32718">
        <ele>11</ele>
        <time>2015-12-04T15:48:35Z</time>
      </trkpt>
      <trkpt lat="48.83265" lon="-3.32716">
        <ele>11</ele>
        <time>2015-12-04T15:48:37Z</time>
      </trkpt>
      <trkpt lat="48.83245" lon="-3.32677">
        <ele>1</ele>
        <time>2015-12-04T15:49:07Z</time>
      </trkpt>
      <trkpt lat="48.83243" lon="-3.32676">
        <ele>1</ele>
        <time>2015-12-04T15:49:08Z</time>
      </trkpt>
      <trkpt lat="48.83242" lon="-3.32675">
        <ele>2</ele>
        <time>2015-12-04T15:49:10Z</time>
      </trkpt>
      <trkpt lat="48.8324" lon="-3.32676">
        <ele>2</ele>
        <time>2015-12-04T15:49:12Z</time>
      </trkpt>
      <trkpt lat="48.83239" lon="-3.32674">
        <ele>2</ele>
        <time>2015-12-04T15:49:14Z</time>
      </trkpt>
      <trkpt lat="48.83235" lon="-3.32667">
        <ele>3</ele>
        <time>2015-12-04T15:49:19Z</time>
      </trkpt>
      <trkpt lat="48.83233" lon="-3.32666">
        <ele>3</ele>
        <time>2015-12-04T15:49:21Z</time>
      </trkpt>
      <trkpt lat="48.83232" lon="-3.32664">
        <ele>2</ele>
        <time>2015-12-04T15:49:22Z</time>
      </trkpt>
      <trkpt lat="48.83229" lon="-3.32664">
        <ele>2</ele>
        <time>2015-12-04T15:49:24Z</time>
      </trkpt>
      <trkpt lat="48.83228" lon="-3.32663">
        <ele>2</ele>
        <time>2015-12-04T15:49:26Z</time>
      </trkpt>
      <trkpt lat="48.83226" lon="-3.32663">
        <ele>3</ele>
        <time>2015-12-04T15:49:28Z</time>
      </trkpt>
      <trkpt lat="48.83221" lon="-3.32657">
        <ele>9</ele>
        <time>2015-12-04T15:49:33Z</time>
      </trkpt>
      <trkpt lat="48.83221" lon="-3.32655">
        <ele>10</ele>
        <time>2015-12-04T15:49:35Z</time>
      </trkpt>
      <trkpt lat="48.8322" lon="-3.32652">
        <ele>10</ele>
        <time>2015-12-04T15:49:37Z</time>
      </trkpt>
      <trkpt lat="48.83219" lon="-3.32651">
        <ele>10</ele>
        <time>2015-12-04T15:49:38Z</time>
      </trkpt>
      <trkpt lat="48.83199" lon="-3.32608">
        <ele>12</ele>
        <time>2015-12-04T15:50:08Z</time>
      </trkpt>
      <trkpt lat="48.83182" lon="-3.3256">
        <ele>9</ele>
        <time>2015-12-04T15:50:38Z</time>
      </trkpt>
      <trkpt lat="48.83181" lon="-3.32558">
        <ele>8</ele>
        <time>2015-12-04T15:50:40Z</time>
      </trkpt>
      <trkpt lat="48.8318" lon="-3.32553">
        <ele>6</ele>
        <time>2015-12-04T15:50:42Z</time>
      </trkpt>
      <trkpt lat="48.83168" lon="-3.32521">
        <ele>6</ele>
        <time>2015-12-04T15:51:04Z</time>
      </trkpt>
      <trkpt lat="48.83169" lon="-3.32518">
        <ele>6</ele>
        <time>2015-12-04T15:51:05Z</time>
      </trkpt>
      <trkpt lat="48.83167" lon="-3.32507">
        <ele>7</ele>
        <time>2015-12-04T15:51:09Z</time>
      </trkpt>
      <trkpt lat="48.83166" lon="-3.32505">
        <ele>9</ele>
        <time>2015-12-04T15:51:11Z</time>
      </trkpt>
    </trkseg>
  </trk>
</gpx>